Observation data for Lomax on 02/14/2018      Previous  Date  Next       Current Mesonet Observations  Soil Data  Daily Summary Page  Observations in Plain Language
KLO1 140600Z 17005KT 08/05 A3026 RMK A01 T00790046  RH  080%=      5-min Rain = 0
KLO1 140601Z 16005KT 08/05 A3026 RMK A01 T00800047  RH  080%=      5-min Rain = 0
KLO1 140602Z 16005KT 08/05 A3026 RMK A01 T00790046  RH  080%=      5-min Rain = 0
KLO1 140603Z 16006KT 08/05 A3026 RMK A01 T00790046  RH  079%=      5-min Rain = 0
KLO1 140604Z 16006KT 08/05 A3026 RMK A01 T00790046  RH  080%=      5-min Rain = 0
KLO1 140605Z 16006KT 08/05 A3026 RMK A01 T00800047  RH  079%=      5-min Rain = 0
KLO1 140606Z 16006KT 08/05 A3026 RMK A01 T00800047  RH  079%=      5-min Rain = 0
KLO1 140607Z 16006KT 08/05 A3026 RMK A01 T00800047  RH  080%=      5-min Rain = 0
KLO1 140608Z 16005KT 08/05 A3026 RMK A01 T00800047  RH  080%=      5-min Rain = 0
KLO1 140609Z 16005KT 08/05 A3026 RMK A01 T00800047  RH  079%=      5-min Rain = 0
KLO1 140610Z 16005KT 08/05 A3026 RMK A01 T00810047  RH  079%=      5-min Rain = 0
KLO1 140611Z 16005KT 08/05 A3026 RMK A01 T00810047  RH  079%=      5-min Rain = 0
KLO1 140612Z 16005KT 08/05 A3026 RMK A01 T00810047  RH  079%=      5-min Rain = 0
KLO1 140613Z 16005KT 08/05 A3026 RMK A01 T00820047  RH  079%=      5-min Rain = 0
KLO1 140614Z 16005KT 08/05 A3025 RMK A01 T00820047  RH  079%=      5-min Rain = 0
KLO1 140615Z 16005KT 08/05 A3025 RMK A01 T00820047  RH  079%=      5-min Rain = 0
KLO1 140616Z 16005KT 08/05 A3025 RMK A01 T00820047  RH  079%=      5-min Rain = 0
KLO1 140617Z 15006KT 08/05 A3025 RMK A01 T00830048  RH  078%=      5-min Rain = 0
KLO1 140618Z 15006KT 08/05 A3025 RMK A01 T00830048  RH  078%=      5-min Rain = 0
KLO1 140619Z 15005KT 08/05 A3025 RMK A01 T00830048  RH  078%=      5-min Rain = 0
KLO1 140620Z 15006KT 08/05 A3025 RMK A01 T00830048  RH  078%=      5-min Rain = 0
KLO1 140621Z 15006KT 08/05 A3025 RMK A01 T00830048  RH  078%=      5-min Rain = 0
KLO1 140622Z 15006KT 08/05 A3025 RMK A01 T00830048  RH  078%=      5-min Rain = 0
KLO1 140623Z 15006KT 08/05 A3025 RMK A01 T00830047  RH  078%=      5-min Rain = 0
KLO1 140624Z 15006KT 08/05 A3025 RMK A01 T00830047  RH  078%=      5-min Rain = 0
KLO1 140625Z 15006KT 08/05 A3025 RMK A01 T00840048  RH  078%=      5-min Rain = 0
KLO1 140626Z 15006KT 08/05 A3025 RMK A01 T00830047  RH  078%=      5-min Rain = 0
KLO1 140627Z 15006KT 08/05 A3025 RMK A01 T00840047  RH  078%=      5-min Rain = 0
KLO1 140628Z 15006KT 08/05 A3025 RMK A01 T00840047  RH  078%=      5-min Rain = 0
KLO1 140629Z 15006KT 08/05 A3025 RMK A01 T00840047  RH  078%=      5-min Rain = 0
KLO1 140630Z 15006KT 08/05 A3025 RMK A01 T00840046  RH  077%=      5-min Rain = 0
KLO1 140631Z 15006KT 08/05 A3025 RMK A01 T00840047  RH  078%=      5-min Rain = 0
KLO1 140632Z 15006KT 08/05 A3025 RMK A01 T00840047  RH  078%=      5-min Rain = 0
KLO1 140633Z 15006KT 08/05 A3025 RMK A01 T00840047  RH  078%=      5-min Rain = 0
KLO1 140634Z 15005KT 08/05 A3025 RMK A01 T00840047  RH  077%=      5-min Rain = 0
KLO1 140635Z 15005KT 08/05 A3025 RMK A01 T00840047  RH  077%=      5-min Rain = 0
KLO1 140636Z 15005KT 08/05 A3025 RMK A01 T00840046  RH  077%=      5-min Rain = 0
KLO1 140637Z 16005KT 08/05 A3025 RMK A01 T00840046  RH  077%=      5-min Rain = 0
KLO1 140638Z 16004KT 08/05 A3025 RMK A01 T00830046  RH  077%=      5-min Rain = 0
KLO1 140639Z 16004KT 08/05 A3025 RMK A01 T00830045  RH  077%=      5-min Rain = 0
KLO1 140640Z 16004KT 08/05 A3025 RMK A01 T00820045  RH  077%=      5-min Rain = 0
KLO1 140641Z 16005KT 08/05 A3025 RMK A01 T00820045  RH  078%=      5-min Rain = 0
KLO1 140642Z 16005KT 08/05 A3025 RMK A01 T00820045  RH  078%=      5-min Rain = 0
KLO1 140643Z 16005KT 08/05 A3025 RMK A01 T00810045  RH  078%=      5-min Rain = 0
KLO1 140644Z 16006KT 08/05 A3025 RMK A01 T00810045  RH  078%=      5-min Rain = 0
KLO1 140645Z 16006KT 08/04 A3025 RMK A01 T00800044  RH  078%=      5-min Rain = 0
KLO1 140646Z 15006KT 08/04 A3025 RMK A01 T00790044  RH  078%=      5-min Rain = 0
KLO1 140647Z 15005KT 08/04 A3025 RMK A01 T00790044  RH  079%=      5-min Rain = 0
KLO1 140648Z 15005KT 08/04 A3025 RMK A01 T00790044  RH  079%=      5-min Rain = 0
KLO1 140649Z 15005KT 08/04 A3025 RMK A01 T00780044  RH  079%=      5-min Rain = 0
KLO1 140650Z 15005KT 08/04 A3025 RMK A01 T00780044  RH  079%=      5-min Rain = 0
KLO1 140651Z 15004KT 08/04 A3025 RMK A01 T00780044  RH  079%=      5-min Rain = 0
KLO1 140652Z 15004KT 08/05 A3025 RMK A01 T00780045  RH  079%=      5-min Rain = 0
KLO1 140653Z 15005KT 08/05 A3026 RMK A01 T00780045  RH  080%=      5-min Rain = 0
KLO1 140654Z 15005KT 08/05 A3026 RMK A01 T00780045  RH  080%=      5-min Rain = 0
KLO1 140655Z 15005KT 08/05 A3026 RMK A01 T00780045  RH  079%=      5-min Rain = 0
KLO1 140656Z 15005KT 08/04 A3026 RMK A01 T00780044  RH  079%=      5-min Rain = 0
KLO1 140657Z 15005KT 08/04 A3026 RMK A01 T00780043  RH  079%=      5-min Rain = 0
KLO1 140658Z 15005KT 08/04 A3026 RMK A01 T00770042  RH  079%=      5-min Rain = 0
KLO1 140659Z 15005KT 08/04 A3026 RMK A01 T00760042  RH  079%=      5-min Rain = 0
KLO1 140700Z 15005KT 08/04 A3026 RMK A01 T00760042  RH  079%=      5-min Rain = 0
KLO1 140701Z 15004KT 08/04 A3026 RMK A01 T00760043  RH  080%=      5-min Rain = 0
KLO1 140702Z 15004KT 08/04 A3026 RMK A01 T00770043  RH  080%=      5-min Rain = 0
KLO1 140703Z 15004KT 08/04 A3026 RMK A01 T00770044  RH  080%=      5-min Rain = 0
KLO1 140704Z 15004KT 08/05 A3026 RMK A01 T00780046  RH  080%=      5-min Rain = 0
KLO1 140705Z 16004KT 08/05 A3026 RMK A01 T00790045  RH  080%=      5-min Rain = 0
KLO1 140706Z 15004KT 08/05 A3026 RMK A01 T00790045  RH  079%=      5-min Rain = 0
KLO1 140707Z 15004KT 08/05 A3026 RMK A01 T00790045  RH  079%=      5-min Rain = 0
KLO1 140708Z 15003KT 08/04 A3026 RMK A01 T00790044  RH  079%=      5-min Rain = 0
KLO1 140709Z 15003KT 08/04 A3026 RMK A01 T00780044  RH  079%=      5-min Rain = 0
KLO1 140710Z 15003KT 08/04 A3026 RMK A01 T00780044  RH  079%=      5-min Rain = 0
KLO1 140711Z 15003KT 08/04 A3026 RMK A01 T00770043  RH  079%=      5-min Rain = 0
KLO1 140712Z 14003KT 08/04 A3026 RMK A01 T00770043  RH  079%=      5-min Rain = 0
KLO1 140713Z 14003KT 08/04 A3026 RMK A01 T00760043  RH  079%=      5-min Rain = 0
KLO1 140714Z 14003KT 08/04 A3026 RMK A01 T00760043  RH  080%=      5-min Rain = 0
KLO1 140715Z 15003KT 08/04 A3026 RMK A01 T00760043  RH  080%=      5-min Rain = 0
KLO1 140716Z 15003KT 08/04 A3026 RMK A01 T00760044  RH  080%=      5-min Rain = 0
KLO1 140717Z 16003KT 08/04 A3026 RMK A01 T00760044  RH  080%=      5-min Rain = 0
KLO1 140718Z 16003KT 08/04 A3026 RMK A01 T00760044  RH  081%=      5-min Rain = 0
KLO1 140719Z 16003KT 08/04 A3026 RMK A01 T00760044  RH  081%=      5-min Rain = 0
KLO1 140720Z 16004KT 08/05 A3026 RMK A01 T00760045  RH  081%=      5-min Rain = 0
KLO1 140721Z 16003KT 08/05 A3026 RMK A01 T00760045  RH  081%=      5-min Rain = 0
KLO1 140722Z 16004KT 08/05 A3026 RMK A01 T00760046  RH  081%=      5-min Rain = 0
KLO1 140723Z 16004KT 08/05 A3026 RMK A01 T00760045  RH  081%=      5-min Rain = 0
KLO1 140724Z 16004KT 08/05 A3026 RMK A01 T00760045  RH  081%=      5-min Rain = 0
KLO1 140725Z 16004KT 08/05 A3026 RMK A01 T00760046  RH  081%=      5-min Rain = 0
KLO1 140726Z 16004KT 08/04 A3026 RMK A01 T00760044  RH  080%=      5-min Rain = 0
KLO1 140727Z 16004KT 08/04 A3026 RMK A01 T00750044  RH  081%=      5-min Rain = 0
KLO1 140728Z 16005KT 08/04 A3026 RMK A01 T00750044  RH  081%=      5-min Rain = 0
KLO1 140729Z 15005KT 08/04 A3026 RMK A01 T00750044  RH  081%=      5-min Rain = 0
KLO1 140730Z 16005KT 07/04 A3026 RMK A01 T00730042  RH  080%=      5-min Rain = 0
KLO1 140731Z 16005KT 07/04 A3026 RMK A01 T00720040  RH  080%=      5-min Rain = 0
KLO1 140732Z 16005KT 07/04 A3026 RMK A01 T00700037  RH  080%=      5-min Rain = 0
KLO1 140733Z 16005KT 07/04 A3026 RMK A01 T00680035  RH  080%=      5-min Rain = 0
KLO1 140734Z 16005KT 07/04 A3026 RMK A01 T00660035  RH  080%=      5-min Rain = 0
KLO1 140735Z 16006KT 07/04 A3026 RMK A01 T00650035  RH  081%=      5-min Rain = 0
KLO1 140736Z 16006KT 07/04 A3026 RMK A01 T00650035  RH  081%=      5-min Rain = 0
KLO1 140737Z 16006KT 06/03 A3026 RMK A01 T00640034  RH  081%=      5-min Rain = 0
KLO1 140738Z 15006KT 06/03 A3026 RMK A01 T00630033  RH  081%=      5-min Rain = 0
KLO1 140739Z 16006KT 06/03 A3026 RMK A01 T00620033  RH  082%=      5-min Rain = 0
KLO1 140740Z 16007KT 06/03 A3025 RMK A01 T00620033  RH  081%=      5-min Rain = 0
KLO1 140741Z 15006KT 06/03 A3025 RMK A01 T00620033  RH  082%=      5-min Rain = 0
KLO1 140742Z 15006KT 06/03 A3025 RMK A01 T00610032  RH  082%=      5-min Rain = 0
KLO1 140743Z 15006KT 06/03 A3025 RMK A01 T00610032  RH  082%=      5-min Rain = 0
KLO1 140744Z 16006KT 06/03 A3025 RMK A01 T00610032  RH  082%=      5-min Rain = 0
KLO1 140745Z 15006KT 06/03 A3025 RMK A01 T00610033  RH  082%=      5-min Rain = 0
KLO1 140746Z 16006KT 06/03 A3025 RMK A01 T00610032  RH  082%=      5-min Rain = 0
KLO1 140747Z 16006KT 06/03 A3025 RMK A01 T00610033  RH  082%=      5-min Rain = 0
KLO1 140748Z 16006KT 06/03 A3026 RMK A01 T00610033  RH  082%=      5-min Rain = 0
KLO1 140749Z 16005KT 06/03 A3026 RMK A01 T00610033  RH  082%=      5-min Rain = 0
KLO1 140750Z 17005KT 06/03 A3026 RMK A01 T00610033  RH  082%=      5-min Rain = 0
KLO1 140751Z 17005KT 06/03 A3026 RMK A01 T00610034  RH  083%=      5-min Rain = 0
KLO1 140752Z 17005KT 06/04 A3026 RMK A01 T00620039  RH  085%=      5-min Rain = 0
KLO1 140753Z 18005KT 06/04 A3026 RMK A01 T00640041  RH  085%=      5-min Rain = 0
KLO1 140754Z 18004KT 07/04 A3026 RMK A01 T00650041  RH  084%=      5-min Rain = 0
KLO1 140755Z 18004KT 07/04 A3026 RMK A01 T00660041  RH  084%=      5-min Rain = 0
KLO1 140756Z 18003KT 07/04 A3026 RMK A01 T00660038  RH  083%=      5-min Rain = 0
KLO1 140757Z 18003KT 06/03 A3025 RMK A01 T00640034  RH  081%=      5-min Rain = 0
KLO1 140758Z 17004KT 06/03 A3025 RMK A01 T00620031  RH  081%=      5-min Rain = 0
KLO1 140759Z 17004KT 06/03 A3025 RMK A01 T00600029  RH  080%=      5-min Rain = 0
KLO1 140800Z 17004KT 06/03 A3025 RMK A01 T00590028  RH  081%=      5-min Rain = 0
KLO1 140801Z 17004KT 06/03 A3025 RMK A01 T00590029  RH  081%=      5-min Rain = 0
KLO1 140802Z 17005KT 06/03 A3025 RMK A01 T00590030  RH  082%=      5-min Rain = 0
KLO1 140803Z 17005KT 06/03 A3025 RMK A01 T00590029  RH  081%=      5-min Rain = 0
KLO1 140804Z 17005KT 06/03 A3025 RMK A01 T00580029  RH  082%=      5-min Rain = 0
KLO1 140805Z 17004KT 06/03 A3025 RMK A01 T00580032  RH  083%=      5-min Rain = 0
KLO1 140806Z 17004KT 06/03 A3025 RMK A01 T00580030  RH  082%=      5-min Rain = 0
KLO1 140807Z 16004KT 06/03 A3025 RMK A01 T00570028  RH  081%=      5-min Rain = 0
KLO1 140808Z 16003KT 06/03 A3025 RMK A01 T00560027  RH  081%=      5-min Rain = 0
KLO1 140809Z 16003KT 06/03 A3025 RMK A01 T00560027  RH  082%=      5-min Rain = 0
KLO1 140810Z 17003KT 06/03 A3025 RMK A01 T00550027  RH  082%=      5-min Rain = 0
KLO1 140811Z 16003KT 06/03 A3025 RMK A01 T00550027  RH  082%=      5-min Rain = 0
KLO1 140812Z 17002KT 06/03 A3025 RMK A01 T00550027  RH  082%=      5-min Rain = 0
KLO1 140813Z 17002KT 06/03 A3025 RMK A01 T00550027  RH  083%=      5-min Rain = 0
KLO1 140814Z 17002KT 06/03 A3025 RMK A01 T00550029  RH  083%=      5-min Rain = 0
KLO1 140815Z 17002KT 06/03 A3025 RMK A01 T00550029  RH  084%=      5-min Rain = 0
KLO1 140816Z 17002KT 06/03 A3025 RMK A01 T00550030  RH  084%=      5-min Rain = 0
KLO1 140817Z 17001KT 06/03 A3025 RMK A01 T00550031  RH  085%=      5-min Rain = 0
KLO1 140818Z 17001KT 06/03 A3025 RMK A01 T00560033  RH  085%=      5-min Rain = 0
KLO1 140819Z 18002KT 06/03 A3025 RMK A01 T00570034  RH  085%=      5-min Rain = 0
KLO1 140820Z 18002KT 06/04 A3025 RMK A01 T00580035  RH  085%=      5-min Rain = 0
KLO1 140821Z 18002KT 06/04 A3025 RMK A01 T00590035  RH  085%=      5-min Rain = 0
KLO1 140822Z 19002KT 06/04 A3025 RMK A01 T00590036  RH  085%=      5-min Rain = 0
KLO1 140823Z 18002KT 06/04 A3025 RMK A01 T00600036  RH  085%=      5-min Rain = 0
KLO1 140824Z 18003KT 06/04 A3025 RMK A01 T00620039  RH  085%=      5-min Rain = 0
KLO1 140825Z 17003KT 06/04 A3025 RMK A01 T00640042  RH  086%=      5-min Rain = 0
KLO1 140826Z 17002KT 07/05 A3025 RMK A01 T00660045  RH  087%=      5-min Rain = 0
KLO1 140827Z 16002KT 07/05 A3025 RMK A01 T00670047  RH  087%=      5-min Rain = 0
KLO1 140828Z 16003KT 07/05 A3025 RMK A01 T00680048  RH  087%=      5-min Rain = 0
KLO1 140829Z 16003KT 07/05 A3025 RMK A01 T00690049  RH  087%=      5-min Rain = 0
KLO1 140830Z 16003KT 07/05 A3025 RMK A01 T00700049  RH  086%=      5-min Rain = 0
KLO1 140831Z 16003KT 07/05 A3025 RMK A01 T00710049  RH  086%=      5-min Rain = 0
KLO1 140832Z 16003KT 07/05 A3025 RMK A01 T00710048  RH  085%=      5-min Rain = 0
KLO1 140833Z 17002KT 07/05 A3025 RMK A01 T00720048  RH  085%=      5-min Rain = 0
KLO1 140834Z 17002KT 07/05 A3025 RMK A01 T00720048  RH  085%=      5-min Rain = 0
KLO1 140835Z 17002KT 07/05 A3025 RMK A01 T00720049  RH  085%=      5-min Rain = 0
KLO1 140836Z 17001KT 07/05 A3025 RMK A01 T00730048  RH  084%=      5-min Rain = 0
KLO1 140837Z 19001KT 07/05 A3025 RMK A01 T00730047  RH  084%=      5-min Rain = 0
KLO1 140838Z 19002KT 07/05 A3025 RMK A01 T00720047  RH  084%=      5-min Rain = 0
KLO1 140839Z 19002KT 07/05 A3025 RMK A01 T00720045  RH  083%=      5-min Rain = 0
KLO1 140840Z 19002KT 07/05 A3025 RMK A01 T00710045  RH  083%=      5-min Rain = 0
KLO1 140841Z 19001KT 07/05 A3025 RMK A01 T00720045  RH  083%=      5-min Rain = 0
KLO1 140842Z 20002KT 07/05 A3025 RMK A01 T00730046  RH  083%=      5-min Rain = 0
KLO1 140843Z 19002KT 07/05 A3025 RMK A01 T00730046  RH  083%=      5-min Rain = 0
KLO1 140844Z 18002KT 07/05 A3025 RMK A01 T00730045  RH  082%=      5-min Rain = 0
KLO1 140845Z 18002KT 07/04 A3025 RMK A01 T00730044  RH  082%=      5-min Rain = 0
KLO1 140846Z 18002KT 07/04 A3025 RMK A01 T00720043  RH  082%=      5-min Rain = 0
KLO1 140847Z 18001KT 07/04 A3025 RMK A01 T00720042  RH  081%=      5-min Rain = 0
KLO1 140848Z 18001KT 07/04 A3025 RMK A01 T00710041  RH  081%=      5-min Rain = 0
KLO1 140849Z 19001KT 07/03 A3025 RMK A01 T00690034  RH  078%=      5-min Rain = 0
KLO1 140850Z 21000KT 07/03 A3025 RMK A01 T00660030  RH  078%=      5-min Rain = 0
KLO1 140851Z 32000KT 06/03 A3025 RMK A01 T00620028  RH  079%=      5-min Rain = 0
KLO1 140852Z 32001KT 06/03 A3025 RMK A01 T00590026  RH  079%=      5-min Rain = 0
KLO1 140853Z 32001KT 06/03 A3025 RMK A01 T00570026  RH  080%=      5-min Rain = 0
KLO1 140854Z 32000KT 06/03 A3024 RMK A01 T00560027  RH  082%=      5-min Rain = 0
KLO1 140855Z 33001KT 06/03 A3024 RMK A01 T00560028  RH  082%=      5-min Rain = 0
KLO1 140856Z 33000KT 06/03 A3024 RMK A01 T00560029  RH  083%=      5-min Rain = 0
KLO1 140857Z 00000KT 06/03 A3024 RMK A01 T00550028  RH  083%=      5-min Rain = 0
KLO1 140858Z 00000KT 06/03 A3024 RMK A01 T00550030  RH  083%=      5-min Rain = 0
KLO1 140859Z 00000KT 06/03 A3024 RMK A01 T00550030  RH  084%=      5-min Rain = 0
KLO1 140900Z 00000KT 06/03 A3024 RMK A01 T00550029  RH  083%=      5-min Rain = 0
KLO1 140901Z 00000KT 06/03 A3024 RMK A01 T00550028  RH  083%=      5-min Rain = 0
KLO1 140902Z 18000KT 06/03 A3024 RMK A01 T00550029  RH  083%=      5-min Rain = 0
KLO1 140903Z 18001KT 06/03 A3024 RMK A01 T00550029  RH  083%=      5-min Rain = 0
KLO1 140904Z 18001KT 06/03 A3024 RMK A01 T00550028  RH  083%=      5-min Rain = 0
KLO1 140905Z 18001KT 06/03 A3024 RMK A01 T00550029  RH  083%=      5-min Rain = 0
KLO1 140906Z 18001KT 06/03 A3023 RMK A01 T00550029  RH  084%=      5-min Rain = 0
KLO1 140907Z 18001KT 06/03 A3023 RMK A01 T00550030  RH  084%=      5-min Rain = 0
KLO1 140908Z 18001KT 06/03 A3023 RMK A01 T00550029  RH  084%=      5-min Rain = 0
KLO1 140909Z 17001KT 06/03 A3023 RMK A01 T00550028  RH  083%=      5-min Rain = 0
KLO1 140910Z 16001KT 06/03 A3023 RMK A01 T00550029  RH  083%=      5-min Rain = 0
KLO1 140911Z 15002KT 06/03 A3023 RMK A01 T00550029  RH  083%=      5-min Rain = 0
KLO1 140912Z 14002KT 06/03 A3023 RMK A01 T00550026  RH  082%=      5-min Rain = 0
KLO1 140913Z 13001KT 05/02 A3023 RMK A01 T00530022  RH  081%=      5-min Rain = 0
KLO1 140914Z 10001KT 05/02 A3023 RMK A01 T00520021  RH  080%=      5-min Rain = 0
KLO1 140915Z 05002KT 05/02 A3023 RMK A01 T00510020  RH  081%=      5-min Rain = 0
KLO1 140916Z 04002KT 05/02 A3023 RMK A01 T00510022  RH  082%=      5-min Rain = 0
KLO1 140917Z 03002KT 05/02 A3024 RMK A01 T00510023  RH  082%=      5-min Rain = 0
KLO1 140918Z 03002KT 05/02 A3024 RMK A01 T00510023  RH  082%=      5-min Rain = 0
KLO1 140919Z 03002KT 05/02 A3024 RMK A01 T00500022  RH  082%=      5-min Rain = 0
KLO1 140920Z 03002KT 05/02 A3023 RMK A01 T00500020  RH  081%=      5-min Rain = 0
KLO1 140921Z 03002KT 05/02 A3023 RMK A01 T00490020  RH  082%=      5-min Rain = 0
KLO1 140922Z 03001KT 05/02 A3023 RMK A01 T00490022  RH  082%=      5-min Rain = 0
KLO1 140923Z 03001KT 05/02 A3023 RMK A01 T00490022  RH  083%=      5-min Rain = 0
KLO1 140924Z 03001KT 05/02 A3023 RMK A01 T00490023  RH  083%=      5-min Rain = 0
KLO1 140925Z 03000KT 05/02 A3023 RMK A01 T00490024  RH  084%=      5-min Rain = 0
KLO1 140926Z 03000KT 05/03 A3023 RMK A01 T00500027  RH  085%=      5-min Rain = 0
KLO1 140927Z 00000KT 05/03 A3023 RMK A01 T00520030  RH  086%=      5-min Rain = 0
KLO1 140928Z 00000KT 05/03 A3023 RMK A01 T00530033  RH  087%=      5-min Rain = 0
KLO1 140929Z 00000KT 05/03 A3023 RMK A01 T00540032  RH  086%=      5-min Rain = 0
KLO1 140930Z 00000KT 05/03 A3023 RMK A01 T00540032  RH  086%=      5-min Rain = 0
KLO1 140931Z 10001KT 06/03 A3024 RMK A01 T00550034  RH  086%=      5-min Rain = 0
KLO1 140932Z 20002KT 06/04 A3024 RMK A01 T00570037  RH  087%=      5-min Rain = 0
KLO1 140933Z 20001KT 06/04 A3024 RMK A01 T00580037  RH  086%=      5-min Rain = 0
KLO1 140934Z 20001KT 06/03 A3023 RMK A01 T00590034  RH  084%=      5-min Rain = 0
KLO1 140935Z 20001KT 06/03 A3023 RMK A01 T00590032  RH  083%=      5-min Rain = 0
KLO1 140936Z 20001KT 06/03 A3024 RMK A01 T00580032  RH  083%=      5-min Rain = 0
KLO1 140937Z 20002KT 06/03 A3024 RMK A01 T00580032  RH  083%=      5-min Rain = 0
KLO1 140938Z 20001KT 06/03 A3024 RMK A01 T00570027  RH  081%=      5-min Rain = 0
KLO1 140939Z 00000KT 06/02 A3023 RMK A01 T00550024  RH  080%=      5-min Rain = 0
KLO1 140940Z 20000KT 05/02 A3023 RMK A01 T00540022  RH  080%=      5-min Rain = 0
KLO1 140941Z 20000KT 05/02 A3023 RMK A01 T00530020  RH  080%=      5-min Rain = 0
KLO1 140942Z 00000KT 05/02 A3023 RMK A01 T00520020  RH  080%=      5-min Rain = 0
KLO1 140943Z 00000KT 05/02 A3023 RMK A01 T00520020  RH  080%=      5-min Rain = 0
KLO1 140944Z 00000KT 05/02 A3023 RMK A01 T00510020  RH  080%=      5-min Rain = 0
KLO1 140945Z 00000KT 05/02 A3023 RMK A01 T00510020  RH  080%=      5-min Rain = 0
KLO1 140946Z 00000KT 05/02 A3023 RMK A01 T00500020  RH  081%=      5-min Rain = 0
KLO1 140947Z 00000KT 05/02 A3023 RMK A01 T00500021  RH  081%=      5-min Rain = 0
KLO1 140948Z 00000KT 05/02 A3023 RMK A01 T00500022  RH  082%=      5-min Rain = 0
KLO1 140949Z 00000KT 05/02 A3023 RMK A01 T00510024  RH  083%=      5-min Rain = 0
KLO1 140950Z 00000KT 05/02 A3023 RMK A01 T00510024  RH  083%=      5-min Rain = 0
KLO1 140951Z 00000KT 05/02 A3024 RMK A01 T00510024  RH  083%=      5-min Rain = 0
KLO1 140952Z 00000KT 05/02 A3024 RMK A01 T00510023  RH  082%=      5-min Rain = 0
KLO1 140953Z 00000KT 05/02 A3024 RMK A01 T00520024  RH  082%=      5-min Rain = 0
KLO1 140954Z 00000KT 05/03 A3024 RMK A01 T00520025  RH  083%=      5-min Rain = 0
KLO1 140955Z 00000KT 05/02 A3024 RMK A01 T00530024  RH  082%=      5-min Rain = 0
KLO1 140956Z 00000KT 05/02 A3024 RMK A01 T00530024  RH  081%=      5-min Rain = 0
KLO1 140957Z 00000KT 05/02 A3024 RMK A01 T00530023  RH  081%=      5-min Rain = 0
KLO1 140958Z 00000KT 05/02 A3024 RMK A01 T00530022  RH  081%=      5-min Rain = 0
KLO1 140959Z 00000KT 05/02 A3024 RMK A01 T00530019  RH  079%=      5-min Rain = 0
KLO1 141000Z 00000KT 05/02 A3024 RMK A01 T00520018  RH  079%=      5-min Rain = 0
KLO1 141001Z 34000KT 05/02 A3024 RMK A01 T00520018  RH  079%=      5-min Rain = 0
KLO1 141002Z 34001KT 05/02 A3024 RMK A01 T00510018  RH  079%=      5-min Rain = 0
KLO1 141003Z 35000KT 05/02 A3024 RMK A01 T00510018  RH  079%=      5-min Rain = 0
KLO1 141004Z 00000KT 05/02 A3024 RMK A01 T00510019  RH  080%=      5-min Rain = 0
KLO1 141005Z 35000KT 05/02 A3023 RMK A01 T00510018  RH  080%=      5-min Rain = 0
KLO1 141006Z 34000KT 05/02 A3023 RMK A01 T00510019  RH  080%=      5-min Rain = 0
KLO1 141007Z 00000KT 05/02 A3023 RMK A01 T00500018  RH  079%=      5-min Rain = 0
KLO1 141008Z 00000KT 05/02 A3023 RMK A01 T00500018  RH  079%=      5-min Rain = 0
KLO1 141009Z 00000KT 05/02 A3023 RMK A01 T00500019  RH  080%=      5-min Rain = 0
KLO1 141010Z 00000KT 05/02 A3023 RMK A01 T00510021  RH  081%=      5-min Rain = 0
KLO1 141011Z 00000KT 05/02 A3023 RMK A01 T00530024  RH  082%=      5-min Rain = 0
KLO1 141012Z 00000KT 05/02 A3023 RMK A01 T00530024  RH  081%=      5-min Rain = 0
KLO1 141013Z 34000KT 05/02 A3023 RMK A01 T00530023  RH  081%=      5-min Rain = 0
KLO1 141014Z 34001KT 05/02 A3023 RMK A01 T00530023  RH  081%=      5-min Rain = 0
KLO1 141015Z 34001KT 05/02 A3023 RMK A01 T00530021  RH  080%=      5-min Rain = 0
KLO1 141016Z 33002KT 05/02 A3023 RMK A01 T00510017  RH  079%=      5-min Rain = 0
KLO1 141017Z 33002KT 05/02 A3023 RMK A01 T00490016  RH  079%=      5-min Rain = 0
KLO1 141018Z 33001KT 05/02 A3023 RMK A01 T00480015  RH  079%=      5-min Rain = 0
KLO1 141019Z 33001KT 05/02 A3023 RMK A01 T00470016  RH  080%=      5-min Rain = 0
KLO1 141020Z 33000KT 05/02 A3023 RMK A01 T00470016  RH  080%=      5-min Rain = 0
KLO1 141021Z 33001KT 05/02 A3023 RMK A01 T00470016  RH  080%=      5-min Rain = 0
KLO1 141022Z 33001KT 05/01 A3023 RMK A01 T00470014  RH  080%=      5-min Rain = 0
KLO1 141023Z 35001KT 05/02 A3023 RMK A01 T00460015  RH  080%=      5-min Rain = 0
KLO1 141024Z 35001KT 05/02 A3023 RMK A01 T00460016  RH  081%=      5-min Rain = 0
KLO1 141025Z 36001KT 05/02 A3023 RMK A01 T00460018  RH  082%=      5-min Rain = 0
KLO1 141026Z 01001KT 05/02 A3023 RMK A01 T00470018  RH  082%=      5-min Rain = 0
KLO1 141027Z 01001KT 05/02 A3023 RMK A01 T00480021  RH  083%=      5-min Rain = 0
KLO1 141028Z 01001KT 05/02 A3023 RMK A01 T00490024  RH  084%=      5-min Rain = 0
KLO1 141029Z 01001KT 05/03 A3024 RMK A01 T00490025  RH  084%=      5-min Rain = 0
KLO1 141030Z 01001KT 05/03 A3024 RMK A01 T00500025  RH  084%=      5-min Rain = 0
KLO1 141031Z 01001KT 05/03 A3024 RMK A01 T00500026  RH  084%=      5-min Rain = 0
KLO1 141032Z 01001KT 05/03 A3024 RMK A01 T00490025  RH  084%=      5-min Rain = 0
KLO1 141033Z 01001KT 05/02 A3024 RMK A01 T00490023  RH  084%=      5-min Rain = 0
KLO1 141034Z 02001KT 05/02 A3024 RMK A01 T00480021  RH  083%=      5-min Rain = 0
KLO1 141035Z 04001KT 05/02 A3024 RMK A01 T00470019  RH  082%=      5-min Rain = 0
KLO1 141036Z 04001KT 05/02 A3023 RMK A01 T00470021  RH  084%=      5-min Rain = 0
KLO1 141037Z 05000KT 05/03 A3023 RMK A01 T00480028  RH  086%=      5-min Rain = 0
KLO1 141038Z 00000KT 05/02 A3023 RMK A01 T00480024  RH  084%=      5-min Rain = 0
KLO1 141039Z 00000KT 05/02 A3023 RMK A01 T00470020  RH  082%=      5-min Rain = 0
KLO1 141040Z 00000KT 05/02 A3023 RMK A01 T00460017  RH  082%=      5-min Rain = 0
KLO1 141041Z 00000KT 05/02 A3023 RMK A01 T00450017  RH  082%=      5-min Rain = 0
KLO1 141042Z 00000KT 05/02 A3023 RMK A01 T00450015  RH  081%=      5-min Rain = 0
KLO1 141043Z 00000KT 04/01 A3023 RMK A01 T00440014  RH  081%=      5-min Rain = 0
KLO1 141044Z 00000KT 04/01 A3023 RMK A01 T00430013  RH  081%=      5-min Rain = 0
KLO1 141045Z 00000KT 04/01 A3023 RMK A01 T00430013  RH  081%=      5-min Rain = 0
KLO1 141046Z 10001KT 04/01 A3023 RMK A01 T00430012  RH  081%=      5-min Rain = 0
KLO1 141047Z 10001KT 04/01 A3023 RMK A01 T00430012  RH  080%=      5-min Rain = 0
KLO1 141048Z 10001KT 04/01 A3023 RMK A01 T00420011  RH  080%=      5-min Rain = 0
KLO1 141049Z 10002KT 04/01 A3023 RMK A01 T00420010  RH  080%=      5-min Rain = 0
KLO1 141050Z 11002KT 04/01 A3024 RMK A01 T00420010  RH  080%=      5-min Rain = 0
KLO1 141051Z 11002KT 04/01 A3024 RMK A01 T00420010  RH  080%=      5-min Rain = 0
KLO1 141052Z 13002KT 04/01 A3024 RMK A01 T00420010  RH  080%=      5-min Rain = 0
KLO1 141053Z 14003KT 04/01 A3024 RMK A01 T00420012  RH  081%=      5-min Rain = 0
KLO1 141054Z 14002KT 04/01 A3024 RMK A01 T00420013  RH  082%=      5-min Rain = 0
KLO1 141055Z 14003KT 04/01 A3024 RMK A01 T00420013  RH  082%=      5-min Rain = 0
KLO1 141056Z 14003KT 04/01 A3023 RMK A01 T00420014  RH  082%=      5-min Rain = 0
KLO1 141057Z 14003KT 04/02 A3023 RMK A01 T00430015  RH  082%=      5-min Rain = 0
KLO1 141058Z 14003KT 04/02 A3023 RMK A01 T00430017  RH  083%=      5-min Rain = 0
KLO1 141059Z 15003KT 04/02 A3023 RMK A01 T00440018  RH  084%=      5-min Rain = 0
KLO1 141100Z 15003KT 04/02 A3023 RMK A01 T00440019  RH  084%=      5-min Rain = 0
KLO1 141101Z 16003KT 04/02 A3023 RMK A01 T00440020  RH  084%=      5-min Rain = 0
KLO1 141102Z 16003KT 05/02 A3023 RMK A01 T00450020  RH  084%=      5-min Rain = 0
KLO1 141103Z 17003KT 05/02 A3024 RMK A01 T00450020  RH  084%=      5-min Rain = 0
KLO1 141104Z 17003KT 05/02 A3024 RMK A01 T00450020  RH  084%=      5-min Rain = 0
KLO1 141105Z 17003KT 05/02 A3024 RMK A01 T00450020  RH  084%=      5-min Rain = 0
KLO1 141106Z 17002KT 05/02 A3024 RMK A01 T00460019  RH  083%=      5-min Rain = 0
KLO1 141107Z 17003KT 05/02 A3024 RMK A01 T00460018  RH  082%=      5-min Rain = 0
KLO1 141108Z 16003KT 05/02 A3024 RMK A01 T00450017  RH  082%=      5-min Rain = 0
KLO1 141109Z 16003KT 05/02 A3023 RMK A01 T00450018  RH  082%=      5-min Rain = 0
KLO1 141110Z 15003KT 05/02 A3023 RMK A01 T00450019  RH  083%=      5-min Rain = 0
KLO1 141111Z 14004KT 05/02 A3023 RMK A01 T00460020  RH  083%=      5-min Rain = 0
KLO1 141112Z 14004KT 05/02 A3023 RMK A01 T00470021  RH  084%=      5-min Rain = 0
KLO1 141113Z 14004KT 05/02 A3023 RMK A01 T00470021  RH  084%=      5-min Rain = 0
KLO1 141114Z 13004KT 05/02 A3023 RMK A01 T00470023  RH  084%=      5-min Rain = 0
KLO1 141115Z 13004KT 05/02 A3023 RMK A01 T00480024  RH  085%=      5-min Rain = 0
KLO1 141116Z 13005KT 05/03 A3023 RMK A01 T00480025  RH  085%=      5-min Rain = 0
KLO1 141117Z 13005KT 05/03 A3023 RMK A01 T00480026  RH  085%=      5-min Rain = 0
KLO1 141118Z 13005KT 05/03 A3023 RMK A01 T00490028  RH  086%=      5-min Rain = 0
KLO1 141119Z 13005KT 05/03 A3023 RMK A01 T00510031  RH  087%=      5-min Rain = 0
KLO1 141120Z 14005KT 05/03 A3023 RMK A01 T00510030  RH  087%=      5-min Rain = 0
KLO1 141121Z 14005KT 05/03 A3023 RMK A01 T00510030  RH  086%=      5-min Rain = 0
KLO1 141122Z 14004KT 05/03 A3023 RMK A01 T00520031  RH  086%=      5-min Rain = 0
KLO1 141123Z 14004KT 05/03 A3023 RMK A01 T00520031  RH  086%=      5-min Rain = 0
KLO1 141124Z 15004KT 05/03 A3023 RMK A01 T00520031  RH  086%=      5-min Rain = 0
KLO1 141125Z 15003KT 05/03 A3023 RMK A01 T00530031  RH  086%=      5-min Rain = 0
KLO1 141126Z 16003KT 05/03 A3023 RMK A01 T00530032  RH  086%=      5-min Rain = 0
KLO1 141127Z 16003KT 05/03 A3023 RMK A01 T00540033  RH  086%=      5-min Rain = 0
KLO1 141128Z 15003KT 05/03 A3023 RMK A01 T00540033  RH  086%=      5-min Rain = 0
KLO1 141129Z 15004KT 05/03 A3023 RMK A01 T00540033  RH  086%=      5-min Rain = 0
KLO1 141130Z 15004KT 06/03 A3023 RMK A01 T00550034  RH  086%=      5-min Rain = 0
KLO1 141131Z 14004KT 06/03 A3023 RMK A01 T00550034  RH  086%=      5-min Rain = 0
KLO1 141132Z 14004KT 06/03 A3023 RMK A01 T00550033  RH  086%=      5-min Rain = 0
KLO1 141133Z 14004KT 06/03 A3022 RMK A01 T00550034  RH  086%=      5-min Rain = 0
KLO1 141134Z 14003KT 06/03 A3023 RMK A01 T00550033  RH  086%=      5-min Rain = 0
KLO1 141135Z 14003KT 06/03 A3023 RMK A01 T00550033  RH  086%=      5-min Rain = 0
KLO1 141136Z 14002KT 06/03 A3023 RMK A01 T00550032  RH  085%=      5-min Rain = 0
KLO1 141137Z 14001KT 05/03 A3023 RMK A01 T00540031  RH  085%=      5-min Rain = 0
KLO1 141138Z 14001KT 05/03 A3023 RMK A01 T00540030  RH  085%=      5-min Rain = 0
KLO1 141139Z 14001KT 05/03 A3023 RMK A01 T00530030  RH  085%=      5-min Rain = 0
KLO1 141140Z 14001KT 05/03 A3023 RMK A01 T00530031  RH  086%=      5-min Rain = 0
KLO1 141141Z 14001KT 05/03 A3023 RMK A01 T00540033  RH  086%=      5-min Rain = 0
KLO1 141142Z 14002KT 05/03 A3023 RMK A01 T00540034  RH  087%=      5-min Rain = 0
KLO1 141143Z 13002KT 05/03 A3023 RMK A01 T00540033  RH  086%=      5-min Rain = 0
KLO1 141144Z 13003KT 05/03 A3023 RMK A01 T00540033  RH  086%=      5-min Rain = 0
KLO1 141145Z 13003KT 06/03 A3023 RMK A01 T00550033  RH  086%=      5-min Rain = 0
KLO1 141146Z 14003KT 06/03 A3023 RMK A01 T00550033  RH  086%=      5-min Rain = 0
KLO1 141147Z 14003KT 06/03 A3023 RMK A01 T00550030  RH  084%=      5-min Rain = 0
KLO1 141148Z 15003KT 05/03 A3023 RMK A01 T00540030  RH  084%=      5-min Rain = 0
KLO1 141149Z 14002KT 05/03 A3022 RMK A01 T00540031  RH  085%=      5-min Rain = 0
KLO1 141150Z 14002KT 05/03 A3022 RMK A01 T00540030  RH  085%=      5-min Rain = 0
KLO1 141151Z 13001KT 05/03 A3022 RMK A01 T00540029  RH  084%=      5-min Rain = 0
KLO1 141152Z 13001KT 05/03 A3022 RMK A01 T00530027  RH  083%=      5-min Rain = 0
KLO1 141153Z 13001KT 05/03 A3023 RMK A01 T00530027  RH  083%=      5-min Rain = 0
KLO1 141154Z 13001KT 05/03 A3023 RMK A01 T00520027  RH  084%=      5-min Rain = 0
KLO1 141155Z 13000KT 05/03 A3023 RMK A01 T00520027  RH  084%=      5-min Rain = 0
KLO1 141156Z 00000KT 05/02 A3023 RMK A01 T00510024  RH  083%=      5-min Rain = 0
KLO1 141157Z 00000KT 05/02 A3023 RMK A01 T00490021  RH  082%=      5-min Rain = 0
KLO1 141158Z 00000KT 05/02 A3023 RMK A01 T00480021  RH  083%=      5-min Rain = 0
KLO1 141159Z 00000KT 05/02 A3023 RMK A01 T00480023  RH  084%=      5-min Rain = 0
KLO1 141200Z 00000KT 05/02 A3023 RMK A01 T00480023  RH  084%=      5-min Rain = 0
KLO1 141201Z 00000KT 05/02 A3023 RMK A01 T00480023  RH  084%=      5-min Rain = 0
KLO1 141202Z 13001KT 05/03 A3023 RMK A01 T00480025  RH  085%=      5-min Rain = 0
KLO1 141203Z 13001KT 05/03 A3023 RMK A01 T00490026  RH  085%=      5-min Rain = 0
KLO1 141204Z 13001KT 05/03 A3023 RMK A01 T00490028  RH  086%=      5-min Rain = 0
KLO1 141205Z 14001KT 05/03 A3023 RMK A01 T00500031  RH  087%=      5-min Rain = 0
KLO1 141206Z 15001KT 05/03 A3023 RMK A01 T00510032  RH  088%=      5-min Rain = 0
KLO1 141207Z 16002KT 05/03 A3023 RMK A01 T00520033  RH  087%=      5-min Rain = 0
KLO1 141208Z 16002KT 05/03 A3023 RMK A01 T00520033  RH  087%=      5-min Rain = 0
KLO1 141209Z 16002KT 05/03 A3023 RMK A01 T00520032  RH  087%=      5-min Rain = 0
KLO1 141210Z 16002KT 05/03 A3023 RMK A01 T00520031  RH  086%=      5-min Rain = 0
KLO1 141211Z 16002KT 05/03 A3023 RMK A01 T00510029  RH  085%=      5-min Rain = 0
KLO1 141212Z 16002KT 05/03 A3023 RMK A01 T00510028  RH  085%=      5-min Rain = 0
KLO1 141213Z 15001KT 05/03 A3023 RMK A01 T00510027  RH  084%=      5-min Rain = 0
KLO1 141214Z 14001KT 05/03 A3023 RMK A01 T00510026  RH  084%=      5-min Rain = 0
KLO1 141215Z 13002KT 05/03 A3023 RMK A01 T00510026  RH  084%=      5-min Rain = 0
KLO1 141216Z 12002KT 05/03 A3023 RMK A01 T00510027  RH  085%=      5-min Rain = 0
KLO1 141217Z 12002KT 05/03 A3023 RMK A01 T00510027  RH  084%=      5-min Rain = 0
KLO1 141218Z 12002KT 05/03 A3023 RMK A01 T00500026  RH  084%=      5-min Rain = 0
KLO1 141219Z 11001KT 05/03 A3023 RMK A01 T00500028  RH  085%=      5-min Rain = 0
KLO1 141220Z 11001KT 05/03 A3023 RMK A01 T00500028  RH  086%=      5-min Rain = 0
KLO1 141221Z 13001KT 05/03 A3023 RMK A01 T00500027  RH  085%=      5-min Rain = 0
KLO1 141222Z 14002KT 05/03 A3023 RMK A01 T00500027  RH  085%=      5-min Rain = 0
KLO1 141223Z 14002KT 05/03 A3023 RMK A01 T00500027  RH  085%=      5-min Rain = 0
KLO1 141224Z 15002KT 05/03 A3023 RMK A01 T00500029  RH  086%=      5-min Rain = 0
KLO1 141225Z 15003KT 05/03 A3023 RMK A01 T00510029  RH  086%=      5-min Rain = 0
KLO1 141226Z 15004KT 05/03 A3023 RMK A01 T00500025  RH  084%=      5-min Rain = 0
KLO1 141227Z 15004KT 05/02 A3023 RMK A01 T00490020  RH  082%=      5-min Rain = 0
KLO1 141228Z 15004KT 05/02 A3023 RMK A01 T00480019  RH  082%=      5-min Rain = 0
KLO1 141229Z 15004KT 05/02 A3023 RMK A01 T00480022  RH  083%=      5-min Rain = 0
KLO1 141230Z 15004KT 05/02 A3023 RMK A01 T00480021  RH  083%=      5-min Rain = 0
KLO1 141231Z 15004KT 05/02 A3023 RMK A01 T00480019  RH  082%=      5-min Rain = 0
KLO1 141232Z 15003KT 05/02 A3023 RMK A01 T00470018  RH  081%=      5-min Rain = 0
KLO1 141233Z 15003KT 05/02 A3023 RMK A01 T00470017  RH  081%=      5-min Rain = 0
KLO1 141234Z 15002KT 05/02 A3023 RMK A01 T00470017  RH  081%=      5-min Rain = 0
KLO1 141235Z 16002KT 05/02 A3024 RMK A01 T00460017  RH  081%=      5-min Rain = 0
KLO1 141236Z 16001KT 05/02 A3024 RMK A01 T00470019  RH  082%=      5-min Rain = 0
KLO1 141237Z 16000KT 05/02 A3024 RMK A01 T00470021  RH  083%=      5-min Rain = 0
KLO1 141238Z 16000KT 05/02 A3024 RMK A01 T00490023  RH  083%=      5-min Rain = 0
KLO1 141239Z 00000KT 05/02 A3024 RMK A01 T00490022  RH  083%=      5-min Rain = 0
KLO1 141240Z 00000KT 05/02 A3024 RMK A01 T00490021  RH  082%=      5-min Rain = 0
KLO1 141241Z 00000KT 05/02 A3024 RMK A01 T00490020  RH  081%=      5-min Rain = 0
KLO1 141242Z 16000KT 05/02 A3024 RMK A01 T00490019  RH  081%=      5-min Rain = 0
KLO1 141243Z 16001KT 05/02 A3024 RMK A01 T00490019  RH  081%=      5-min Rain = 0
KLO1 141244Z 16000KT 05/02 A3024 RMK A01 T00490020  RH  082%=      5-min Rain = 0
KLO1 141245Z 16001KT 05/02 A3024 RMK A01 T00490021  RH  082%=      5-min Rain = 0
KLO1 141246Z 16000KT 05/02 A3024 RMK A01 T00490022  RH  083%=      5-min Rain = 0
KLO1 141247Z 00000KT 05/02 A3024 RMK A01 T00490021  RH  082%=      5-min Rain = 0
KLO1 141248Z 00000KT 05/02 A3024 RMK A01 T00490021  RH  082%=      5-min Rain = 0
KLO1 141249Z 00000KT 05/02 A3024 RMK A01 T00490020  RH  082%=      5-min Rain = 0
KLO1 141250Z 00000KT 05/02 A3024 RMK A01 T00490020  RH  082%=      5-min Rain = 0
KLO1 141251Z 00000KT 05/02 A3024 RMK A01 T00490021  RH  082%=      5-min Rain = 0
KLO1 141252Z 00000KT 05/02 A3024 RMK A01 T00500020  RH  081%=      5-min Rain = 0
KLO1 141253Z 00000KT 05/02 A3024 RMK A01 T00500020  RH  081%=      5-min Rain = 0
KLO1 141254Z 00000KT 05/02 A3024 RMK A01 T00500020  RH  081%=      5-min Rain = 0
KLO1 141255Z 00000KT 05/02 A3024 RMK A01 T00500021  RH  081%=      5-min Rain = 0
KLO1 141256Z 00000KT 05/02 A3024 RMK A01 T00500021  RH  081%=      5-min Rain = 0
KLO1 141257Z 00000KT 05/02 A3024 RMK A01 T00500021  RH  081%=      5-min Rain = 0
KLO1 141258Z 00000KT 05/02 A3024 RMK A01 T00500021  RH  081%=      5-min Rain = 0
KLO1 141259Z 16000KT 05/02 A3024 RMK A01 T00510022  RH  082%=      5-min Rain = 0
KLO1 141300Z 16001KT 05/02 A3023 RMK A01 T00510022  RH  082%=      5-min Rain = 0
KLO1 141301Z 16001KT 05/02 A3023 RMK A01 T00510022  RH  082%=      5-min Rain = 0
KLO1 141302Z 15002KT 05/02 A3023 RMK A01 T00510023  RH  082%=      5-min Rain = 0
KLO1 141303Z 14002KT 05/02 A3023 RMK A01 T00510023  RH  082%=      5-min Rain = 0
KLO1 141304Z 14001KT 05/02 A3023 RMK A01 T00520024  RH  082%=      5-min Rain = 0
KLO1 141305Z 14001KT 05/02 A3023 RMK A01 T00520022  RH  081%=      5-min Rain = 0
KLO1 141306Z 14001KT 05/02 A3023 RMK A01 T00520021  RH  080%=      5-min Rain = 0
KLO1 141307Z 14000KT 05/02 A3023 RMK A01 T00520020  RH  080%=      5-min Rain = 0
KLO1 141308Z 00000KT 05/02 A3023 RMK A01 T00510019  RH  080%=      5-min Rain = 0
KLO1 141309Z 00000KT 05/02 A3023 RMK A01 T00510019  RH  080%=      5-min Rain = 0
KLO1 141310Z 13000KT 05/02 A3023 RMK A01 T00510021  RH  081%=      5-min Rain = 0
KLO1 141311Z 13002KT 05/02 A3023 RMK A01 T00510020  RH  081%=      5-min Rain = 0
KLO1 141312Z 13001KT 05/02 A3023 RMK A01 T00510020  RH  080%=      5-min Rain = 0
KLO1 141313Z 13002KT 05/02 A3023 RMK A01 T00510020  RH  080%=      5-min Rain = 0
KLO1 141314Z 12002KT 05/02 A3023 RMK A01 T00510019  RH  079%=      5-min Rain = 0
KLO1 141315Z 13002KT 05/02 A3023 RMK A01 T00510017  RH  079%=      5-min Rain = 0
KLO1 141316Z 14003KT 05/02 A3024 RMK A01 T00500015  RH  078%=      5-min Rain = 0
KLO1 141317Z 14003KT 05/01 A3024 RMK A01 T00490013  RH  078%=      5-min Rain = 0
KLO1 141318Z 15003KT 05/01 A3024 RMK A01 T00480013  RH  078%=      5-min Rain = 0
KLO1 141319Z 14002KT 05/01 A3023 RMK A01 T00480013  RH  078%=      5-min Rain = 0
KLO1 141320Z 12002KT 05/02 A3023 RMK A01 T00480015  RH  079%=      5-min Rain = 0
KLO1 141321Z 12003KT 05/02 A3023 RMK A01 T00480016  RH  079%=      5-min Rain = 0
KLO1 141322Z 13003KT 05/02 A3024 RMK A01 T00480016  RH  080%=      5-min Rain = 0
KLO1 141323Z 13003KT 05/02 A3023 RMK A01 T00480016  RH  080%=      5-min Rain = 0
KLO1 141324Z 14003KT 05/02 A3024 RMK A01 T00480016  RH  080%=      5-min Rain = 0
KLO1 141325Z 15004KT 05/02 A3024 RMK A01 T00480017  RH  080%=      5-min Rain = 0
KLO1 141326Z 15005KT 05/02 A3024 RMK A01 T00480017  RH  080%=      5-min Rain = 0
KLO1 141327Z 15004KT 05/02 A3024 RMK A01 T00480017  RH  080%=      5-min Rain = 0
KLO1 141328Z 15004KT 05/02 A3024 RMK A01 T00490019  RH  081%=      5-min Rain = 0
KLO1 141329Z 15003KT 05/02 A3024 RMK A01 T00490021  RH  082%=      5-min Rain = 0
KLO1 141330Z 15003KT 05/02 A3024 RMK A01 T00490023  RH  083%=      5-min Rain = 0
KLO1 141331Z 15004KT 05/03 A3024 RMK A01 T00500025  RH  084%=      5-min Rain = 0
KLO1 141332Z 15004KT 05/03 A3024 RMK A01 T00510026  RH  084%=      5-min Rain = 0
KLO1 141333Z 15003KT 05/03 A3024 RMK A01 T00510027  RH  085%=      5-min Rain = 0
KLO1 141334Z 14003KT 05/03 A3023 RMK A01 T00510028  RH  085%=      5-min Rain = 0
KLO1 141335Z 13003KT 05/03 A3023 RMK A01 T00520031  RH  086%=      5-min Rain = 0
KLO1 141336Z 13003KT 05/03 A3023 RMK A01 T00520030  RH  086%=      5-min Rain = 0
KLO1 141337Z 13003KT 05/03 A3023 RMK A01 T00520029  RH  085%=      5-min Rain = 0
KLO1 141338Z 13004KT 05/03 A3023 RMK A01 T00510028  RH  085%=      5-min Rain = 0
KLO1 141339Z 13004KT 05/03 A3023 RMK A01 T00510027  RH  085%=      5-min Rain = 0
KLO1 141340Z 14004KT 05/03 A3023 RMK A01 T00500025  RH  084%=      5-min Rain = 0
KLO1 141341Z 14005KT 05/03 A3023 RMK A01 T00490026  RH  085%=      5-min Rain = 0
KLO1 141342Z 14005KT 05/03 A3023 RMK A01 T00490026  RH  085%=      5-min Rain = 0
KLO1 141343Z 15005KT 05/03 A3023 RMK A01 T00490027  RH  085%=      5-min Rain = 0
KLO1 141344Z 15005KT 05/03 A3023 RMK A01 T00490027  RH  085%=      5-min Rain = 0
KLO1 141345Z 14005KT 05/03 A3023 RMK A01 T00490027  RH  086%=      5-min Rain = 0
KLO1 141346Z 14005KT 05/03 A3023 RMK A01 T00490027  RH  086%=      5-min Rain = 0
KLO1 141347Z 14006KT 05/03 A3023 RMK A01 T00490027  RH  086%=      5-min Rain = 0
KLO1 141348Z 14006KT 05/03 A3023 RMK A01 T00490028  RH  086%=      5-min Rain = 0
KLO1 141349Z 14006KT 05/03 A3023 RMK A01 T00500029  RH  086%=      5-min Rain = 0
KLO1 141350Z 14005KT 05/03 A3023 RMK A01 T00510030  RH  087%=      5-min Rain = 0
KLO1 141351Z 14005KT 05/03 A3023 RMK A01 T00520031  RH  087%=      5-min Rain = 0
KLO1 141352Z 14005KT 05/03 A3023 RMK A01 T00520032  RH  087%=      5-min Rain = 0
KLO1 141353Z 14005KT 05/03 A3023 RMK A01 T00530032  RH  086%=      5-min Rain = 0
KLO1 141354Z 14004KT 05/03 A3022 RMK A01 T00530033  RH  086%=      5-min Rain = 0
KLO1 141355Z 13003KT 05/03 A3022 RMK A01 T00540033  RH  086%=      5-min Rain = 0
KLO1 141356Z 14003KT 05/03 A3022 RMK A01 T00540033  RH  086%=      5-min Rain = 0
KLO1 141357Z 14004KT 06/03 A3023 RMK A01 T00550034  RH  086%=      5-min Rain = 0
KLO1 141358Z 14004KT 06/03 A3023 RMK A01 T00550034  RH  086%=      5-min Rain = 0
KLO1 141359Z 14003KT 06/03 A3023 RMK A01 T00550033  RH  086%=      5-min Rain = 0
KLO1 141400Z 13003KT 06/03 A3022 RMK A01 T00560033  RH  085%=      5-min Rain = 0
KLO1 141401Z 13003KT 06/03 A3023 RMK A01 T00560033  RH  085%=      5-min Rain = 0
KLO1 141402Z 14004KT 06/03 A3023 RMK A01 T00560033  RH  085%=      5-min Rain = 0
KLO1 141403Z 14004KT 06/03 A3023 RMK A01 T00560032  RH  084%=      5-min Rain = 0
KLO1 141404Z 14003KT 06/03 A3023 RMK A01 T00570032  RH  084%=      5-min Rain = 0
KLO1 141405Z 13003KT 06/03 A3023 RMK A01 T00570033  RH  084%=      5-min Rain = 0
KLO1 141406Z 13004KT 06/03 A3022 RMK A01 T00570033  RH  084%=      5-min Rain = 0
KLO1 141407Z 13004KT 06/03 A3022 RMK A01 T00580032  RH  084%=      5-min Rain = 0
KLO1 141408Z 13004KT 06/03 A3022 RMK A01 T00580033  RH  084%=      5-min Rain = 0
KLO1 141409Z 13004KT 06/03 A3022 RMK A01 T00590033  RH  084%=      5-min Rain = 0
KLO1 141410Z 14005KT 06/03 A3022 RMK A01 T00590034  RH  084%=      5-min Rain = 0
KLO1 141411Z 14004KT 06/04 A3022 RMK A01 T00600035  RH  084%=      5-min Rain = 0
KLO1 141412Z 14003KT 06/04 A3022 RMK A01 T00610035  RH  084%=      5-min Rain = 0
KLO1 141413Z 14003KT 06/04 A3022 RMK A01 T00620036  RH  084%=      5-min Rain = 0
KLO1 141414Z 14004KT 06/04 A3023 RMK A01 T00620036  RH  083%=      5-min Rain = 0
KLO1 141415Z 15005KT 06/04 A3023 RMK A01 T00630036  RH  083%=      5-min Rain = 0
KLO1 141416Z 15004KT 06/04 A3023 RMK A01 T00630037  RH  083%=      5-min Rain = 0
KLO1 141417Z 16004KT 06/04 A3023 RMK A01 T00640037  RH  083%=      5-min Rain = 0
KLO1 141418Z 16004KT 06/04 A3023 RMK A01 T00640037  RH  083%=      5-min Rain = 0
KLO1 141419Z 16004KT 07/04 A3023 RMK A01 T00650038  RH  083%=      5-min Rain = 0
KLO1 141420Z 16004KT 07/04 A3023 RMK A01 T00660038  RH  083%=      5-min Rain = 0
KLO1 141421Z 16004KT 07/04 A3023 RMK A01 T00670039  RH  083%=      5-min Rain = 0
KLO1 141422Z 15003KT 07/04 A3023 RMK A01 T00680040  RH  083%=      5-min Rain = 0
KLO1 141423Z 16003KT 07/04 A3023 RMK A01 T00690042  RH  083%=      5-min Rain = 0
KLO1 141424Z 16004KT 07/04 A3023 RMK A01 T00690042  RH  083%=      5-min Rain = 0
KLO1 141425Z 15003KT 07/04 A3023 RMK A01 T00700042  RH  083%=      5-min Rain = 0
KLO1 141426Z 15003KT 07/04 A3023 RMK A01 T00700042  RH  083%=      5-min Rain = 0
KLO1 141427Z 14003KT 07/04 A3023 RMK A01 T00700043  RH  083%=      5-min Rain = 0
KLO1 141428Z 14003KT 07/04 A3023 RMK A01 T00710044  RH  083%=      5-min Rain = 0
KLO1 141429Z 14003KT 07/04 A3022 RMK A01 T00710044  RH  083%=      5-min Rain = 0
KLO1 141430Z 14004KT 07/05 A3022 RMK A01 T00720045  RH  083%=      5-min Rain = 0
KLO1 141431Z 14004KT 07/05 A3022 RMK A01 T00720045  RH  083%=      5-min Rain = 0
KLO1 141432Z 14004KT 07/05 A3022 RMK A01 T00730045  RH  083%=      5-min Rain = 0
KLO1 141433Z 14005KT 07/05 A3022 RMK A01 T00740046  RH  082%=      5-min Rain = 0
KLO1 141434Z 14005KT 08/05 A3022 RMK A01 T00750046  RH  082%=      5-min Rain = 0
KLO1 141435Z 14006KT 08/05 A3022 RMK A01 T00750046  RH  081%=      5-min Rain = 0
KLO1 141436Z 14005KT 08/05 A3022 RMK A01 T00760046  RH  081%=      5-min Rain = 0
KLO1 141437Z 13006KT 08/05 A3022 RMK A01 T00760046  RH  081%=      5-min Rain = 0
KLO1 141438Z 13005KT 08/05 A3022 RMK A01 T00770046  RH  081%=      5-min Rain = 0
KLO1 141439Z 14005KT 08/05 A3022 RMK A01 T00770046  RH  081%=      5-min Rain = 0
KLO1 141440Z 13005KT 08/05 A3022 RMK A01 T00770047  RH  081%=      5-min Rain = 0
KLO1 141441Z 13006KT 08/05 A3022 RMK A01 T00780047  RH  081%=      5-min Rain = 0
KLO1 141442Z 13005KT 08/05 A3022 RMK A01 T00790048  RH  081%=      5-min Rain = 0
KLO1 141443Z 13005KT 08/05 A3022 RMK A01 T00790048  RH  081%=      5-min Rain = 0
KLO1 141444Z 14005KT 08/05 A3022 RMK A01 T00800049  RH  081%=      5-min Rain = 0
KLO1 141445Z 14006KT 08/05 A3022 RMK A01 T00800049  RH  080%=      5-min Rain = 0
KLO1 141446Z 14005KT 08/05 A3022 RMK A01 T00810049  RH  080%=      5-min Rain = 0
KLO1 141447Z 14005KT 08/05 A3022 RMK A01 T00810049  RH  080%=      5-min Rain = 0
KLO1 141448Z 14005KT 08/05 A3022 RMK A01 T00820049  RH  080%=      5-min Rain = 0
KLO1 141449Z 14005KT 08/05 A3022 RMK A01 T00820050  RH  080%=      5-min Rain = 0
KLO1 141450Z 14005KT 08/05 A3022 RMK A01 T00820050  RH  080%=      5-min Rain = 0
KLO1 141451Z 14005KT 08/05 A3022 RMK A01 T00820050  RH  080%=      5-min Rain = 0
KLO1 141452Z 15004KT 08/05 A3022 RMK A01 T00830050  RH  080%=      5-min Rain = 0
KLO1 141453Z 15004KT 08/05 A3022 RMK A01 T00830051  RH  080%=      5-min Rain = 0
KLO1 141454Z 15004KT 08/05 A3022 RMK A01 T00840051  RH  080%=      5-min Rain = 0
KLO1 141455Z 15006KT 08/05 A3022 RMK A01 T00840051  RH  080%=      5-min Rain = 0
KLO1 141456Z 15006KT 09/05 A3022 RMK A01 T00850052  RH  080%=      5-min Rain = 0
KLO1 141457Z 16005KT 09/05 A3022 RMK A01 T00850052  RH  080%=      5-min Rain = 0
KLO1 141458Z 15006KT 09/05 A3022 RMK A01 T00850052  RH  080%=      5-min Rain = 0
KLO1 141459Z 16006KT 09/05 A3022 RMK A01 T00850053  RH  080%=      5-min Rain = 0
KLO1 141500Z 16005KT 09/05 A3023 RMK A01 T00850052  RH  080%=      5-min Rain = 0
KLO1 141501Z 16005KT 09/05 A3023 RMK A01 T00860053  RH  080%=      5-min Rain = 0
KLO1 141502Z 16006KT 09/05 A3022 RMK A01 T00860053  RH  080%=      5-min Rain = 0
KLO1 141503Z 16006KT 09/05 A3023 RMK A01 T00870054  RH  080%=      5-min Rain = 0
KLO1 141504Z 16005KT 09/05 A3023 RMK A01 T00870054  RH  080%=      5-min Rain = 0
KLO1 141505Z 16005KT 09/05 A3023 RMK A01 T00880054  RH  080%=      5-min Rain = 0
KLO1 141506Z 17005KT 09/06 A3023 RMK A01 T00880055  RH  080%=      5-min Rain = 0
KLO1 141507Z 16006KT 09/06 A3023 RMK A01 T00890056  RH  080%=      5-min Rain = 0
KLO1 141508Z 17006KT 09/06 A3023 RMK A01 T00900057  RH  080%=      5-min Rain = 0
KLO1 141509Z 16006KT 09/06 A3023 RMK A01 T00910057  RH  079%=      5-min Rain = 0
KLO1 141510Z 17005KT 09/06 A3023 RMK A01 T00920058  RH  079%=      5-min Rain = 0
KLO1 141511Z 16005KT 09/06 A3023 RMK A01 T00930058  RH  079%=      5-min Rain = 0
KLO1 141512Z 16007KT 09/06 A3023 RMK A01 T00940059  RH  079%=      5-min Rain = 0
KLO1 141513Z 16006KT 10/06 A3023 RMK A01 T00950059  RH  078%=      5-min Rain = 0
KLO1 141514Z 17006KT 10/06 A3023 RMK A01 T00950059  RH  078%=      5-min Rain = 0
KLO1 141515Z 17006KT 10/06 A3023 RMK A01 T00960060  RH  078%=      5-min Rain = 0
KLO1 141516Z 16007KT 10/06 A3023 RMK A01 T00970061  RH  078%=      5-min Rain = 0
KLO1 141517Z 17009KT 10/06 A3023 RMK A01 T00980061  RH  077%=      5-min Rain = 0
KLO1 141518Z 16006KT 10/06 A3023 RMK A01 T00980060  RH  077%=      5-min Rain = 0
KLO1 141519Z 16007KT 10/06 A3023 RMK A01 T00990061  RH  077%=      5-min Rain = 0
KLO1 141520Z 16008KT 10/06 A3023 RMK A01 T00990060  RH  077%=      5-min Rain = 0
KLO1 141521Z 16007KT 10/06 A3023 RMK A01 T00990060  RH  077%=      5-min Rain = 0
KLO1 141522Z 17007KT 10/06 A3023 RMK A01 T00990060  RH  077%=      5-min Rain = 0
KLO1 141523Z 17008KT 10/06 A3023 RMK A01 T01000060  RH  076%=      5-min Rain = 0
KLO1 141524Z 16008KT 10/06 A3023 RMK A01 T01000060  RH  076%=      5-min Rain = 0
KLO1 141525Z 17006KT 10/06 A3023 RMK A01 T01000061  RH  076%=      5-min Rain = 0
KLO1 141526Z 17006KT 10/06 A3023 RMK A01 T01010061  RH  076%=      5-min Rain = 0
KLO1 141527Z 17007KT 10/06 A3023 RMK A01 T01010061  RH  076%=      5-min Rain = 0
KLO1 141528Z 18007KT 10/06 A3023 RMK A01 T01010061  RH  076%=      5-min Rain = 0
KLO1 141529Z 18007KT 10/06 A3024 RMK A01 T01020061  RH  076%=      5-min Rain = 0
KLO1 141530Z 18006KT 10/06 A3024 RMK A01 T01020061  RH  076%=      5-min Rain = 0
KLO1 141531Z 18006KT 10/06 A3024 RMK A01 T01040063  RH  076%=      5-min Rain = 0
KLO1 141532Z 18007KT 11/06 A3024 RMK A01 T01050063  RH  075%=      5-min Rain = 0
KLO1 141533Z 17008KT 11/06 A3024 RMK A01 T01060063  RH  074%=      5-min Rain = 0
KLO1 141534Z 17008KT 11/06 A3024 RMK A01 T01060062  RH  074%=      5-min Rain = 0
KLO1 141535Z 17008KT 11/06 A3024 RMK A01 T01070062  RH  074%=      5-min Rain = 0
KLO1 141536Z 18006KT 11/06 A3024 RMK A01 T01070062  RH  074%=      5-min Rain = 0
KLO1 141537Z 19006KT 11/06 A3024 RMK A01 T01080063  RH  074%=      5-min Rain = 0
KLO1 141538Z 19007KT 11/06 A3024 RMK A01 T01080063  RH  073%=      5-min Rain = 0
KLO1 141539Z 18005KT 11/06 A3024 RMK A01 T01090063  RH  073%=      5-min Rain = 0
KLO1 141540Z 18004KT 11/06 A3024 RMK A01 T01090063  RH  073%=      5-min Rain = 0
KLO1 141541Z 18006KT 11/06 A3024 RMK A01 T01100064  RH  073%=      5-min Rain = 0
KLO1 141542Z 18006KT 11/07 A3024 RMK A01 T01110065  RH  073%=      5-min Rain = 0
KLO1 141543Z 18008KT 11/07 A3024 RMK A01 T01120065  RH  073%=      5-min Rain = 0
KLO1 141544Z 19007KT 11/07 A3024 RMK A01 T01130066  RH  073%=      5-min Rain = 0
KLO1 141545Z 18008KT 11/07 A3024 RMK A01 T01130066  RH  072%=      5-min Rain = 0
KLO1 141546Z 18008KT 11/07 A3024 RMK A01 T01140066  RH  072%=      5-min Rain = 0
KLO1 141547Z 18007KT 11/07 A3024 RMK A01 T01140066  RH  072%=      5-min Rain = 0
KLO1 141548Z 18008KT 11/07 A3024 RMK A01 T01140066  RH  072%=      5-min Rain = 0
KLO1 141549Z 19007KT 11/07 A3024 RMK A01 T01140066  RH  072%=      5-min Rain = 0
KLO1 141550Z 19008KT 12/07 A3024 RMK A01 T01150067  RH  072%=      5-min Rain = 0
KLO1 141551Z 19008KT 12/07 A3024 RMK A01 T01160067  RH  072%=      5-min Rain = 0
KLO1 141552Z 19008KT 12/07 A3024 RMK A01 T01160067  RH  072%=      5-min Rain = 0
KLO1 141553Z 19008KT 12/07 A3024 RMK A01 T01170067  RH  071%=      5-min Rain = 0
KLO1 141554Z 18008KT 12/07 A3024 RMK A01 T01170067  RH  071%=      5-min Rain = 0
KLO1 141555Z 19009KT 12/07 A3023 RMK A01 T01180067  RH  071%=      5-min Rain = 0
KLO1 141556Z 19010KT 12/07 A3023 RMK A01 T01180068  RH  071%=      5-min Rain = 0
KLO1 141557Z 19010KT 12/07 A3023 RMK A01 T01180067  RH  071%=      5-min Rain = 0
KLO1 141558Z 18009KT 12/07 A3023 RMK A01 T01180067  RH  071%=      5-min Rain = 0
KLO1 141559Z 18008KT 12/07 A3023 RMK A01 T01190068  RH  071%=      5-min Rain = 0
KLO1 141600Z 18007KT 12/07 A3023 RMK A01 T01200069  RH  071%=      5-min Rain = 0
KLO1 141601Z 19010KT 12/07 A3023 RMK A01 T01210068  RH  070%=      5-min Rain = 0
KLO1 141602Z 19009KT 12/07 A3023 RMK A01 T01210068  RH  070%=      5-min Rain = 0
KLO1 141603Z 19008KT 12/07 A3022 RMK A01 T01210068  RH  070%=      5-min Rain = 0
KLO1 141604Z 19009KT 12/07 A3022 RMK A01 T01220069  RH  070%=      5-min Rain = 0
KLO1 141605Z 19009KT 12/07 A3022 RMK A01 T01230068  RH  069%=      5-min Rain = 0
KLO1 141606Z 18009KT 12/07 A3022 RMK A01 T01230069  RH  070%=      5-min Rain = 0
KLO1 141607Z 19008KT 12/07 A3022 RMK A01 T01220069  RH  070%=      5-min Rain = 0
KLO1 141608Z 19008KT 12/07 A3022 RMK A01 T01230068  RH  069%=      5-min Rain = 0
KLO1 141609Z 19006KT 12/07 A3022 RMK A01 T01230068  RH  069%=      5-min Rain = 0
KLO1 141610Z 18005KT 12/07 A3022 RMK A01 T01240069  RH  069%=      5-min Rain = 0
KLO1 141611Z 18006KT 13/07 A3022 RMK A01 T01250069  RH  069%=      5-min Rain = 0
KLO1 141612Z 18007KT 13/07 A3022 RMK A01 T01250069  RH  068%=      5-min Rain = 0
KLO1 141613Z 18006KT 13/07 A3022 RMK A01 T01250069  RH  068%=      5-min Rain = 0
KLO1 141614Z 18006KT 13/07 A3022 RMK A01 T01260069  RH  069%=      5-min Rain = 0
KLO1 141615Z 16006KT 13/07 A3022 RMK A01 T01260069  RH  068%=      5-min Rain = 0
KLO1 141616Z 18007KT 13/07 A3022 RMK A01 T01270070  RH  068%=      5-min Rain = 0
KLO1 141617Z 17007KT 13/07 A3022 RMK A01 T01280069  RH  067%=      5-min Rain = 0
KLO1 141618Z 17006KT 13/07 A3022 RMK A01 T01280069  RH  067%=      5-min Rain = 0
KLO1 141619Z 18007KT 13/07 A3022 RMK A01 T01270069  RH  067%=      5-min Rain = 0
KLO1 141620Z 18007KT 13/07 A3022 RMK A01 T01280069  RH  067%=      5-min Rain = 0
KLO1 141621Z 18006KT 13/07 A3022 RMK A01 T01280069  RH  067%=      5-min Rain = 0
KLO1 141622Z 17006KT 13/07 A3022 RMK A01 T01290069  RH  067%=      5-min Rain = 0
KLO1 141623Z 18006KT 13/07 A3022 RMK A01 T01300069  RH  067%=      5-min Rain = 0
KLO1 141624Z 18007KT 13/07 A3022 RMK A01 T01300069  RH  066%=      5-min Rain = 0
KLO1 141625Z 18006KT 13/07 A3022 RMK A01 T01300068  RH  066%=      5-min Rain = 0
KLO1 141626Z 17007KT 13/07 A3022 RMK A01 T01300068  RH  066%=      5-min Rain = 0
KLO1 141627Z 18007KT 13/07 A3022 RMK A01 T01300068  RH  066%=      5-min Rain = 0
KLO1 141628Z 18006KT 13/07 A3022 RMK A01 T01300068  RH  066%=      5-min Rain = 0
KLO1 141629Z 18007KT 13/07 A3022 RMK A01 T01300068  RH  066%=      5-min Rain = 0
KLO1 141630Z 19006KT 13/07 A3022 RMK A01 T01300068  RH  066%=      5-min Rain = 0
KLO1 141631Z 18008KT 13/07 A3022 RMK A01 T01290068  RH  066%=      5-min Rain = 0
KLO1 141632Z 17008KT 13/07 A3022 RMK A01 T01300067  RH  066%=      5-min Rain = 0
KLO1 141633Z 18009KT 13/07 A3022 RMK A01 T01300068  RH  066%=      5-min Rain = 0
KLO1 141634Z 18007KT 13/07 A3022 RMK A01 T01310067  RH  065%=      5-min Rain = 0
KLO1 141635Z 18006KT 13/07 A3022 RMK A01 T01310067  RH  065%=      5-min Rain = 0
KLO1 141636Z 18008KT 13/07 A3022 RMK A01 T01320069  RH  065%=      5-min Rain = 0
KLO1 141637Z 17008KT 13/07 A3022 RMK A01 T01330068  RH  065%=      5-min Rain = 0
KLO1 141638Z 18008KT 13/07 A3022 RMK A01 T01330068  RH  065%=      5-min Rain = 0
KLO1 141639Z 18009KT 13/07 A3022 RMK A01 T01340068  RH  064%=      5-min Rain = 0
KLO1 141640Z 19008KT 13/07 A3021 RMK A01 T01340068  RH  064%=      5-min Rain = 0
KLO1 141641Z 18007KT 14/07 A3021 RMK A01 T01350068  RH  064%=      5-min Rain = 0
KLO1 141642Z 18008KT 14/07 A3021 RMK A01 T01350068  RH  064%=      5-min Rain = 0
KLO1 141643Z 19008KT 14/07 A3021 RMK A01 T01360068  RH  063%=      5-min Rain = 0
KLO1 141644Z 17007KT 14/07 A3021 RMK A01 T01370068  RH  063%=      5-min Rain = 0
KLO1 141645Z 18008KT 14/07 A3021 RMK A01 T01380069  RH  063%=      5-min Rain = 0
KLO1 141646Z 19009KT 14/07 A3021 RMK A01 T01390068  RH  062%=      5-min Rain = 0
KLO1 141647Z 19009KT 14/07 A3021 RMK A01 T01380066  RH  062%=      5-min Rain = 0
KLO1 141648Z 19008KT 14/07 A3021 RMK A01 T01370067  RH  063%=      5-min Rain = 0
KLO1 141649Z 19009KT 14/07 A3021 RMK A01 T01380068  RH  063%=      5-min Rain = 0
KLO1 141650Z 18010KT 14/07 A3021 RMK A01 T01390067  RH  062%=      5-min Rain = 0
KLO1 141651Z 19008KT 14/07 A3022 RMK A01 T01390067  RH  062%=      5-min Rain = 0
KLO1 141652Z 19007KT 14/07 A3022 RMK A01 T01400068  RH  062%=      5-min Rain = 0
KLO1 141653Z 19006KT 14/07 A3022 RMK A01 T01410069  RH  062%=      5-min Rain = 0
KLO1 141654Z 18009KT 14/07 A3022 RMK A01 T01420068  RH  061%=      5-min Rain = 0
KLO1 141655Z 19008KT 14/07 A3022 RMK A01 T01430067  RH  060%=      5-min Rain = 0
KLO1 141656Z 18007KT 14/07 A3022 RMK A01 T01430067  RH  060%=      5-min Rain = 0
KLO1 141657Z 18008KT 14/07 A3022 RMK A01 T01430068  RH  061%=      5-min Rain = 0
KLO1 141658Z 19008KT 14/07 A3022 RMK A01 T01430068  RH  060%=      5-min Rain = 0
KLO1 141659Z 19007KT 14/07 A3022 RMK A01 T01440068  RH  060%=      5-min Rain = 0
KLO1 141700Z 18008KT 14/07 A3022 RMK A01 T01440068  RH  060%=      5-min Rain = 0
KLO1 141701Z 19007KT 15/07 A3022 RMK A01 T01470070  RH  060%=      5-min Rain = 0
KLO1 141702Z 20008KT 15/07 A3022 RMK A01 T01490069  RH  059%=      5-min Rain = 0
KLO1 141703Z 19008KT 15/07 A3022 RMK A01 T01500069  RH  058%=      5-min Rain = 0
KLO1 141704Z 19008KT 15/07 A3022 RMK A01 T01500068  RH  058%=      5-min Rain = 0
KLO1 141705Z 18007KT 15/07 A3022 RMK A01 T01490068  RH  058%=      5-min Rain = 0
KLO1 141706Z 19008KT 15/07 A3022 RMK A01 T01510070  RH  058%=      5-min Rain = 0
KLO1 141707Z 19008KT 15/07 A3022 RMK A01 T01520069  RH  058%=      5-min Rain = 0
KLO1 141708Z 19009KT 15/07 A3022 RMK A01 T01530069  RH  057%=      5-min Rain = 0
KLO1 141709Z 21007KT 15/07 A3022 RMK A01 T01530069  RH  057%=      5-min Rain = 0
KLO1 141710Z 20008KT 15/07 A3022 RMK A01 T01530068  RH  057%=      5-min Rain = 0
KLO1 141711Z 19009KT 15/07 A3022 RMK A01 T01530069  RH  057%=      5-min Rain = 0
KLO1 141712Z 19007KT 15/07 A3022 RMK A01 T01540068  RH  057%=      5-min Rain = 0
KLO1 141713Z 19006KT 16/07 A3022 RMK A01 T01550068  RH  056%=      5-min Rain = 0
KLO1 141714Z 20008KT 16/07 A3022 RMK A01 T01560070  RH  056%=      5-min Rain = 0
KLO1 141715Z 20008KT 16/07 A3022 RMK A01 T01580070  RH  056%=      5-min Rain = 0
KLO1 141716Z 18008KT 16/07 A3022 RMK A01 T01590070  RH  055%=      5-min Rain = 0
KLO1 141717Z 18006KT 16/07 A3022 RMK A01 T01600069  RH  055%=      5-min Rain = 0
KLO1 141718Z 19007KT 16/07 A3022 RMK A01 T01580068  RH  055%=      5-min Rain = 0
KLO1 141719Z 20007KT 16/07 A3022 RMK A01 T01600069  RH  055%=      5-min Rain = 0
KLO1 141720Z 20008KT 16/07 A3022 RMK A01 T01600068  RH  054%=      5-min Rain = 0
KLO1 141721Z 19006KT 16/07 A3022 RMK A01 T01590067  RH  054%=      5-min Rain = 0
KLO1 141722Z 19005KT 16/07 A3022 RMK A01 T01580068  RH  055%=      5-min Rain = 0
KLO1 141723Z 20005KT 16/07 A3022 RMK A01 T01580068  RH  055%=      5-min Rain = 0
KLO1 141724Z 18006KT 16/07 A3022 RMK A01 T01580068  RH  055%=      5-min Rain = 0
KLO1 141725Z 20008KT 16/07 A3022 RMK A01 T01610069  RH  055%=      5-min Rain = 0
KLO1 141726Z 19007KT 16/07 A3022 RMK A01 T01630069  RH  054%=      5-min Rain = 0
KLO1 141727Z 20007KT 17/07 A3022 RMK A01 T01650069  RH  053%=      5-min Rain = 0
KLO1 141728Z 20008KT 17/07 A3022 RMK A01 T01660068  RH  052%=      5-min Rain = 0
KLO1 141729Z 20008KT 17/07 A3022 RMK A01 T01660067  RH  052%=      5-min Rain = 0
KLO1 141730Z 19008KT 17/07 A3022 RMK A01 T01650067  RH  052%=      5-min Rain = 0
KLO1 141731Z 19007KT 17/07 A3022 RMK A01 T01650066  RH  052%=      5-min Rain = 0
KLO1 141732Z 19006KT 17/07 A3022 RMK A01 T01650068  RH  052%=      5-min Rain = 0
KLO1 141733Z 19005KT 17/07 A3022 RMK A01 T01670069  RH  052%=      5-min Rain = 0
KLO1 141734Z 19007KT 17/07 A3022 RMK A01 T01690069  RH  052%=      5-min Rain = 0
KLO1 141735Z 18009KT 17/07 A3022 RMK A01 T01690067  RH  051%=      5-min Rain = 0
KLO1 141736Z 18008KT 17/07 A3022 RMK A01 T01680067  RH  051%=      5-min Rain = 0
KLO1 141737Z 18009KT 17/07 A3022 RMK A01 T01690067  RH  051%=      5-min Rain = 0
KLO1 141738Z 18008KT 17/07 A3022 RMK A01 T01700067  RH  050%=      5-min Rain = 0
KLO1 141739Z 19007KT 17/07 A3021 RMK A01 T01710067  RH  051%=      5-min Rain = 0
KLO1 141740Z 18006KT 17/07 A3021 RMK A01 T01710067  RH  050%=      5-min Rain = 0
KLO1 141741Z 19008KT 17/07 A3021 RMK A01 T01710067  RH  050%=      5-min Rain = 0
KLO1 141742Z 20007KT 17/07 A3021 RMK A01 T01710065  RH  050%=      5-min Rain = 0
KLO1 141743Z 19005KT 17/06 A3021 RMK A01 T01700064  RH  050%=      5-min Rain = 0
KLO1 141744Z 19008KT 17/07 A3021 RMK A01 T01710066  RH  050%=      5-min Rain = 0
KLO1 141745Z 19008KT 17/07 A3021 RMK A01 T01720067  RH  050%=      5-min Rain = 0
KLO1 141746Z 19007KT 17/07 A3021 RMK A01 T01720066  RH  050%=      5-min Rain = 0
KLO1 141747Z 18008KT 17/07 A3021 RMK A01 T01710065  RH  050%=      5-min Rain = 0
KLO1 141748Z 18008KT 17/06 A3021 RMK A01 T01720064  RH  049%=      5-min Rain = 0
KLO1 141749Z 19008KT 17/07 A3021 RMK A01 T01740066  RH  049%=      5-min Rain = 0
KLO1 141750Z 17006KT 17/07 A3021 RMK A01 T01740067  RH  049%=      5-min Rain = 0
KLO1 141751Z 18010KT 18/07 A3021 RMK A01 T01770068  RH  049%=      5-min Rain = 0
KLO1 141752Z 19009KT 18/07 A302 RMK A01 T01790067  RH  048%=      5-min Rain = 0
KLO1 141753Z 19007KT 18/07 A302 RMK A01 T01790066  RH  047%=      5-min Rain = 0
KLO1 141754Z 19006KT 18/07 A302 RMK A01 T01790065  RH  047%=      5-min Rain = 0
KLO1 141755Z 17007KT 18/07 A302 RMK A01 T01790066  RH  048%=      5-min Rain = 0
KLO1 141756Z 17007KT 18/07 A302 RMK A01 T01800066  RH  047%=      5-min Rain = 0
KLO1 141757Z 17008KT 18/07 A302 RMK A01 T01810065  RH  047%=      5-min Rain = 0
KLO1 141758Z 17006KT 18/06 A302 RMK A01 T01820064  RH  046%=      5-min Rain = 0
KLO1 141759Z 18007KT 18/07 A302 RMK A01 T01840065  RH  046%=      5-min Rain = 0
KLO1 141800Z 18006KT 19/07 A302 RMK A01 T01850067  RH  046%=      5-min Rain = 0
KLO1 141801Z 17009KT 19/07 A302 RMK A01 T01870068  RH  046%=      5-min Rain = 0
KLO1 141802Z 16007KT 19/07 A302 RMK A01 T01870068  RH  046%=      5-min Rain = 0
KLO1 141803Z 15007KT 19/07 A3019 RMK A01 T01870066  RH  045%=      5-min Rain = 0
KLO1 141804Z 18009KT 19/07 A3019 RMK A01 T01870065  RH  045%=      5-min Rain = 0
KLO1 141805Z 17008KT 19/07 A3019 RMK A01 T01880065  RH  045%=      5-min Rain = 0
KLO1 141806Z 18008KT 19/07 A3019 RMK A01 T01870065  RH  045%=      5-min Rain = 0
KLO1 141807Z 18008KT 19/06 A3019 RMK A01 T01860063  RH  045%=      5-min Rain = 0
KLO1 141808Z 17009KT 19/06 A3019 RMK A01 T01850063  RH  045%=      5-min Rain = 0
KLO1 141809Z 18009KT 19/06 A3019 RMK A01 T01870062  RH  044%=      5-min Rain = 0
KLO1 141810Z 19008KT 19/06 A3019 RMK A01 T01870060  RH  043%=      5-min Rain = 0
KLO1 141811Z 19007KT 19/06 A3019 RMK A01 T01850059  RH  044%=      5-min Rain = 0
KLO1 141812Z 19008KT 19/06 A3019 RMK A01 T01850060  RH  044%=      5-min Rain = 0
KLO1 141813Z 18009KT 19/06 A3019 RMK A01 T01870063  RH  044%=      5-min Rain = 0
KLO1 141814Z 17009KT 19/06 A3019 RMK A01 T01900063  RH  044%=      5-min Rain = 0
KLO1 141815Z 18009KT 19/06 A3019 RMK A01 T01890062  RH  043%=      5-min Rain = 0
KLO1 141816Z 18007KT 19/06 A3019 RMK A01 T01900062  RH  043%=      5-min Rain = 0
KLO1 141817Z 17009KT 19/06 A3019 RMK A01 T01900061  RH  043%=      5-min Rain = 0
KLO1 141818Z 17009KT 19/06 A3019 RMK A01 T01900059  RH  042%=      5-min Rain = 0
KLO1 141819Z 18007KT 19/06 A3019 RMK A01 T01890059  RH  042%=      5-min Rain = 0
KLO1 141820Z 19008KT 19/06 A3019 RMK A01 T01900060  RH  042%=      5-min Rain = 0
KLO1 141821Z 20008KT 19/06 A3019 RMK A01 T01910060  RH  042%=      5-min Rain = 0
KLO1 141822Z 19008KT 19/06 A3019 RMK A01 T01920061  RH  042%=      5-min Rain = 0
KLO1 141823Z 19008KT 19/06 A3019 RMK A01 T01940060  RH  042%=      5-min Rain = 0
KLO1 141824Z 18009KT 20/06 A3019 RMK A01 T01950061  RH  042%=      5-min Rain = 0
KLO1 141825Z 18008KT 20/06 A3019 RMK A01 T01960061  RH  041%=      5-min Rain = 0
KLO1 141826Z 19008KT 20/06 A3019 RMK A01 T01960060  RH  041%=      5-min Rain = 0
KLO1 141827Z 18009KT 20/06 A3019 RMK A01 T01970060  RH  041%=      5-min Rain = 0
KLO1 141828Z 19010KT 20/06 A3018 RMK A01 T01990060  RH  040%=      5-min Rain = 0
KLO1 141829Z 20011KT 20/06 A3018 RMK A01 T01990058  RH  040%=      5-min Rain = 0
KLO1 141830Z 19010KT 20/06 A3018 RMK A01 T01990057  RH  039%=      5-min Rain = 0
KLO1 141831Z 19009KT 20/06 A3018 RMK A01 T02000057  RH  039%=      5-min Rain = 0
KLO1 141832Z 18009KT 20/06 A3018 RMK A01 T02000058  RH  039%=      5-min Rain = 0
KLO1 141833Z 18009KT 20/06 A3018 RMK A01 T02020059  RH  039%=      5-min Rain = 0
KLO1 141834Z 18009KT 20/06 A3018 RMK A01 T02020059  RH  039%=      5-min Rain = 0
KLO1 141835Z 18009KT 20/06 A3018 RMK A01 T02030060  RH  039%=      5-min Rain = 0
KLO1 141836Z 19009KT 21/06 A3018 RMK A01 T02050061  RH  039%=      5-min Rain = 0
KLO1 141837Z 19009KT 21/06 A3018 RMK A01 T02070061  RH  039%=      5-min Rain = 0
KLO1 141838Z 20009KT 21/06 A3018 RMK A01 T02080063  RH  039%=      5-min Rain = 0
KLO1 141839Z 19010KT 21/06 A3018 RMK A01 T02110064  RH  038%=      5-min Rain = 0
KLO1 141840Z 18009KT 21/06 A3018 RMK A01 T02130063  RH  038%=      5-min Rain = 0
KLO1 141841Z 19010KT 21/06 A3017 RMK A01 T02140063  RH  037%=      5-min Rain = 0
KLO1 141842Z 19010KT 22/06 A3017 RMK A01 T02150063  RH  037%=      5-min Rain = 0
KLO1 141843Z 18011KT 22/06 A3017 RMK A01 T02150063  RH  037%=      5-min Rain = 0
KLO1 141844Z 17010KT 22/06 A3017 RMK A01 T02150062  RH  037%=      5-min Rain = 0
KLO1 141845Z 18012KT 22/06 A3017 RMK A01 T02160064  RH  037%=      5-min Rain = 0
KLO1 141846Z 19011KT 22/06 A3017 RMK A01 T02180061  RH  036%=      5-min Rain = 0
KLO1 141847Z 20009KT 22/06 A3017 RMK A01 T02180059  RH  036%=      5-min Rain = 0
KLO1 141848Z 18011KT 22/06 A3017 RMK A01 T02200058  RH  035%=      5-min Rain = 0
KLO1 141849Z 18010KT 22/06 A3017 RMK A01 T02210058  RH  035%=      5-min Rain = 0
KLO1 141850Z 18011KT 22/06 A3017 RMK A01 T02230059  RH  034%=      5-min Rain = 0
KLO1 141851Z 19009KT 22/06 A3017 RMK A01 T02240059  RH  034%=      5-min Rain = 0
KLO1 141852Z 20009KT 23/06 A3017 RMK A01 T02270062  RH  034%=      5-min Rain = 0
KLO1 141853Z 18010KT 23/06 A3016 RMK A01 T02270059  RH  034%=      5-min Rain = 0
KLO1 141854Z 18011KT 23/06 A3016 RMK A01 T02260058  RH  034%=      5-min Rain = 0
KLO1 141855Z 18009KT 22/06 A3016 RMK A01 T02230056  RH  034%=      5-min Rain = 0
KLO1 141856Z 19010KT 22/06 A3016 RMK A01 T02210057  RH  034%=      5-min Rain = 0
KLO1 141857Z 19011KT 22/06 A3016 RMK A01 T02230057  RH  034%=      5-min Rain = 0
KLO1 141858Z 20011KT 23/06 A3016 RMK A01 T02250056  RH  033%=      5-min Rain = 0
KLO1 141859Z 20011KT 23/05 A3016 RMK A01 T02250052  RH  032%=      5-min Rain = 0
KLO1 141900Z 20011KT 23/05 A3016 RMK A01 T02270053  RH  032%=      5-min Rain = 0
KLO1 141901Z 18010KT 23/05 A3016 RMK A01 T02280053  RH  032%=      5-min Rain = 0
KLO1 141902Z 19009KT 23/05 A3016 RMK A01 T02270054  RH  033%=      5-min Rain = 0
KLO1 141903Z 19007KT 23/05 A3016 RMK A01 T02260054  RH  033%=      5-min Rain = 0
KLO1 141904Z 19008KT 23/06 A3016 RMK A01 T02250055  RH  033%=      5-min Rain = 0
KLO1 141905Z 19011KT 23/05 A3016 RMK A01 T02260054  RH  033%=      5-min Rain = 0
KLO1 141906Z 19010KT 23/05 A3015 RMK A01 T02280053  RH  032%=      5-min Rain = 0
KLO1 141907Z 19011KT 23/06 A3015 RMK A01 T02270055  RH  033%=      5-min Rain = 0
KLO1 141908Z 20010KT 23/06 A3015 RMK A01 T02290057  RH  033%=      5-min Rain = 0
KLO1 141909Z 18010KT 23/06 A3015 RMK A01 T02310057  RH  032%=      5-min Rain = 0
KLO1 141910Z 18013KT 23/06 A3015 RMK A01 T02320056  RH  032%=      5-min Rain = 0
KLO1 141911Z 17012KT 23/06 A3015 RMK A01 T02310056  RH  032%=      5-min Rain = 0
KLO1 141912Z 19011KT 23/06 A3015 RMK A01 T02300057  RH  033%=      5-min Rain = 0
KLO1 141913Z 18013KT 23/06 A3015 RMK A01 T02300057  RH  033%=      5-min Rain = 0
KLO1 141914Z 19011KT 23/06 A3015 RMK A01 T02310055  RH  032%=      5-min Rain = 0
KLO1 141915Z 18012KT 23/05 A3015 RMK A01 T02310053  RH  032%=      5-min Rain = 0
KLO1 141916Z 17011KT 23/05 A3015 RMK A01 T02300054  RH  032%=      5-min Rain = 0
KLO1 141917Z 17010KT 23/05 A3015 RMK A01 T02320054  RH  032%=      5-min Rain = 0
KLO1 141918Z 17009KT 23/06 A3015 RMK A01 T02320056  RH  032%=      5-min Rain = 0
KLO1 141919Z 18008KT 23/06 A3015 RMK A01 T02310057  RH  032%=      5-min Rain = 0
KLO1 141920Z 18008KT 23/06 A3015 RMK A01 T02320060  RH  033%=      5-min Rain = 0
KLO1 141921Z 18011KT 24/06 A3015 RMK A01 T02350060  RH  032%=      5-min Rain = 0
KLO1 141922Z 18012KT 24/06 A3015 RMK A01 T02370058  RH  032%=      5-min Rain = 0
KLO1 141923Z 17011KT 24/06 A3015 RMK A01 T02380057  RH  031%=      5-min Rain = 0
KLO1 141924Z 18011KT 24/06 A3014 RMK A01 T02380056  RH  031%=      5-min Rain = 0
KLO1 141925Z 18011KT 24/06 A3014 RMK A01 T02380055  RH  031%=      5-min Rain = 0
KLO1 141926Z 18011KT 24/05 A3014 RMK A01 T02380053  RH  030%=      5-min Rain = 0
KLO1 141927Z 18011KT 24/05 A3014 RMK A01 T02360054  RH  031%=      5-min Rain = 0
KLO1 141928Z 17012KT 24/06 A3014 RMK A01 T02380055  RH  031%=      5-min Rain = 0
KLO1 141929Z 16012KT 24/06 A3014 RMK A01 T02370055  RH  031%=      5-min Rain = 0
KLO1 141930Z 17012KT 24/05 A3014 RMK A01 T02360054  RH  031%=      5-min Rain = 0
KLO1 141931Z 18012KT 24/05 A3014 RMK A01 T02360051  RH  030%=      5-min Rain = 0
KLO1 141932Z 18012KT 24/06 A3014 RMK A01 T02360055  RH  031%=      5-min Rain = 0
KLO1 141933Z 19012KT 24/06 A3014 RMK A01 T02370058  RH  031%=      5-min Rain = 0
KLO1 141934Z 18011KT 24/06 A3014 RMK A01 T02380057  RH  031%=      5-min Rain = 0
KLO1 141935Z 18008KT 24/06 A3014 RMK A01 T02370056  RH  031%=      5-min Rain = 0
KLO1 141936Z 19012KT 24/06 A3014 RMK A01 T02380058  RH  031%=      5-min Rain = 0
KLO1 141937Z 19011KT 24/06 A3014 RMK A01 T02400055  RH  030%=      5-min Rain = 0
KLO1 141938Z 17011KT 24/06 A3014 RMK A01 T02390057  RH  031%=      5-min Rain = 0
KLO1 141939Z 17011KT 24/06 A3014 RMK A01 T02390057  RH  031%=      5-min Rain = 0
KLO1 141940Z 17011KT 24/06 A3014 RMK A01 T02370056  RH  031%=      5-min Rain = 0
KLO1 141941Z 18013KT 24/05 A3014 RMK A01 T02360054  RH  031%=      5-min Rain = 0
KLO1 141942Z 19011KT 24/05 A3014 RMK A01 T02380050  RH  030%=      5-min Rain = 0
KLO1 141943Z 18010KT 24/05 A3014 RMK A01 T02370052  RH  030%=      5-min Rain = 0
KLO1 141944Z 19013KT 24/06 A3013 RMK A01 T02380055  RH  031%=      5-min Rain = 0
KLO1 141945Z 18011KT 24/06 A3013 RMK A01 T02420055  RH  030%=      5-min Rain = 0
KLO1 141946Z 19011KT 24/06 A3013 RMK A01 T02440055  RH  030%=      5-min Rain = 0
KLO1 141947Z 18012KT 25/06 A3013 RMK A01 T02450055  RH  029%=      5-min Rain = 0
KLO1 141948Z 18013KT 25/06 A3013 RMK A01 T02460055  RH  029%=      5-min Rain = 0
KLO1 141949Z 18011KT 25/06 A3013 RMK A01 T02450056  RH  030%=      5-min Rain = 0
KLO1 141950Z 17013KT 24/06 A3013 RMK A01 T02440057  RH  030%=      5-min Rain = 0
KLO1 141951Z 18010KT 24/06 A3013 RMK A01 T02430056  RH  030%=      5-min Rain = 0
KLO1 141952Z 19011KT 24/06 A3013 RMK A01 T02430058  RH  030%=      5-min Rain = 0
KLO1 141953Z 19010KT 24/06 A3013 RMK A01 T02440058  RH  030%=      5-min Rain = 0
KLO1 141954Z 18009KT 24/06 A3013 RMK A01 T02440058  RH  030%=      5-min Rain = 0
KLO1 141955Z 18009KT 24/06 A3013 RMK A01 T02440060  RH  031%=      5-min Rain = 0
KLO1 141956Z 19012KT 25/06 A3012 RMK A01 T02450061  RH  031%=      5-min Rain = 0
KLO1 141957Z 18013KT 25/06 A3012 RMK A01 T02460062  RH  031%=      5-min Rain = 0
KLO1 141958Z 18013KT 25/06 A3012 RMK A01 T02460063  RH  031%=      5-min Rain = 0
KLO1 141959Z 17012KT 25/06 A3012 RMK A01 T02460063  RH  031%=      5-min Rain = 0
KLO1 142000Z 18012KT 25/06 A3012 RMK A01 T02480063  RH  031%=      5-min Rain = 0
KLO1 142001Z 19011KT 25/06 A3012 RMK A01 T02480063  RH  030%=      5-min Rain = 0
KLO1 142002Z 18009KT 25/06 A3012 RMK A01 T02490064  RH  031%=      5-min Rain = 0
KLO1 142003Z 19012KT 25/06 A3012 RMK A01 T02540063  RH  029%=      5-min Rain = 0
KLO1 142004Z 18012KT 25/06 A3011 RMK A01 T02540062  RH  029%=      5-min Rain = 0
KLO1 142005Z 17013KT 25/06 A3011 RMK A01 T02540062  RH  029%=      5-min Rain = 0
KLO1 142006Z 17011KT 25/06 A3011 RMK A01 T02530061  RH  029%=      5-min Rain = 0
KLO1 142007Z 16010KT 25/06 A3011 RMK A01 T02520060  RH  029%=      5-min Rain = 0
KLO1 142008Z 18014KT 25/05 A3011 RMK A01 T02530054  RH  028%=      5-min Rain = 0
KLO1 142009Z 19015KT 26/05 A3011 RMK A01 T02550049  RH  026%=      5-min Rain = 0
KLO1 142010Z 20012KT 26/05 A3011 RMK A01 T02550048  RH  026%=      5-min Rain = 0
KLO1 142011Z 19011KT 25/05 A3011 RMK A01 T02540051  RH  027%=      5-min Rain = 0
KLO1 142012Z 18012KT 26/06 A3011 RMK A01 T02550055  RH  028%=      5-min Rain = 0
KLO1 142013Z 18009KT 26/06 A3011 RMK A01 T02570056  RH  027%=      5-min Rain = 0
KLO1 142014Z 19013KT 26/05 A3011 RMK A01 T02560052  RH  027%=      5-min Rain = 0
KLO1 142015Z 19013KT 26/05 A3011 RMK A01 T02570050  RH  026%=      5-min Rain = 0
KLO1 142016Z 19012KT 26/05 A3011 RMK A01 T02570052  RH  027%=      5-min Rain = 0
KLO1 142017Z 20012G17KT 26/05 A3011 RMK A01 T02550054  RH  027%=      5-min Rain = 0
KLO1 142018Z 18012KT 26/05 A3011 RMK A01 T02550054  RH  027%=      5-min Rain = 0
KLO1 142019Z 18012KT 26/05 A3011 RMK A01 T02550053  RH  027%=      5-min Rain = 0
KLO1 142020Z 18009KT 25/05 A3011 RMK A01 T02530053  RH  028%=      5-min Rain = 0
KLO1 142021Z 18010G15KT 25/05 A3011 RMK A01 T02510052  RH  028%=      5-min Rain = 0
KLO1 142022Z 19013KT 25/05 A3011 RMK A01 T02530050  RH  027%=      5-min Rain = 0
KLO1 142023Z 19010KT 25/05 A3011 RMK A01 T02540050  RH  027%=      5-min Rain = 0
KLO1 142024Z 19010KT 25/05 A301 RMK A01 T02530050  RH  027%=      5-min Rain = 0
KLO1 142025Z 20012KT 25/05 A301 RMK A01 T02510050  RH  027%=      5-min Rain = 0
KLO1 142026Z 19011KT 25/05 A301 RMK A01 T02510052  RH  028%=      5-min Rain = 0
KLO1 142027Z 19013KT 25/06 A301 RMK A01 T02510055  RH  028%=      5-min Rain = 0
KLO1 142028Z 19012KT 25/06 A301 RMK A01 T02530055  RH  028%=      5-min Rain = 0
KLO1 142029Z 21013KT 26/06 A301 RMK A01 T02570057  RH  028%=      5-min Rain = 0
KLO1 142030Z 20012KT 26/06 A301 RMK A01 T02580056  RH  027%=      5-min Rain = 0
KLO1 142031Z 19013KT 26/06 A301 RMK A01 T02570056  RH  028%=      5-min Rain = 0
KLO1 142032Z 18013KT 25/06 A301 RMK A01 T02540055  RH  028%=      5-min Rain = 0
KLO1 142033Z 18012KT 25/05 A301 RMK A01 T02540053  RH  028%=      5-min Rain = 0
KLO1 142034Z 18012KT 26/06 A301 RMK A01 T02560055  RH  028%=      5-min Rain = 0
KLO1 142035Z 19013KT 26/06 A301 RMK A01 T02590056  RH  027%=      5-min Rain = 0
KLO1 142036Z 18010KT 26/06 A301 RMK A01 T02580055  RH  027%=      5-min Rain = 0
KLO1 142037Z 19011KT 26/06 A301 RMK A01 T02590058  RH  028%=      5-min Rain = 0
KLO1 142038Z 19015KT 26/06 A301 RMK A01 T02620057  RH  027%=      5-min Rain = 0
KLO1 142039Z 18016KT 26/06 A301 RMK A01 T02630055  RH  026%=      5-min Rain = 0
KLO1 142040Z 18015KT 26/05 A301 RMK A01 T02630053  RH  026%=      5-min Rain = 0
KLO1 142041Z 18012KT 26/05 A301 RMK A01 T02600051  RH  026%=      5-min Rain = 0
KLO1 142042Z 20009G14KT 26/05 A301 RMK A01 T02590054  RH  027%=      5-min Rain = 0
KLO1 142043Z 21014KT 26/06 A3009 RMK A01 T02610057  RH  027%=      5-min Rain = 0
KLO1 142044Z 20012KT 26/06 A3009 RMK A01 T02610056  RH  027%=      5-min Rain = 0
KLO1 142045Z 18010KT 26/06 A3009 RMK A01 T02600055  RH  027%=      5-min Rain = 0
KLO1 142046Z 19011KT 26/06 A3009 RMK A01 T02600056  RH  027%=      5-min Rain = 0
KLO1 142047Z 20011KT 26/06 A3009 RMK A01 T02600057  RH  027%=      5-min Rain = 0
KLO1 142048Z 20011KT 26/06 A3009 RMK A01 T02600058  RH  027%=      5-min Rain = 0
KLO1 142049Z 19012KT 26/06 A3009 RMK A01 T02620058  RH  027%=      5-min Rain = 0
KLO1 142050Z 18012KT 26/06 A3009 RMK A01 T02630058  RH  027%=      5-min Rain = 0
KLO1 142051Z 18012KT 26/06 A3009 RMK A01 T02640058  RH  027%=      5-min Rain = 0
KLO1 142052Z 18012KT 27/06 A3009 RMK A01 T02660057  RH  026%=      5-min Rain = 0
KLO1 142053Z 18013KT 27/06 A3008 RMK A01 T02670058  RH  026%=      5-min Rain = 0
KLO1 142054Z 18014KT 27/06 A3008 RMK A01 T02680059  RH  026%=      5-min Rain = 0
KLO1 142055Z 19014KT 27/06 A3008 RMK A01 T02680059  RH  026%=      5-min Rain = 0
KLO1 142056Z 19012KT 27/06 A3008 RMK A01 T02690059  RH  026%=      5-min Rain = 0
KLO1 142057Z 18013KT 27/06 A3008 RMK A01 T02680059  RH  026%=      5-min Rain = 0
KLO1 142058Z 19010KT 27/06 A3008 RMK A01 T02680059  RH  026%=      5-min Rain = 0
KLO1 142059Z 20011KT 27/06 A3008 RMK A01 T02690060  RH  026%=      5-min Rain = 0
KLO1 142100Z 19013KT 27/06 A3008 RMK A01 T02700059  RH  026%=      5-min Rain = 0
KLO1 142101Z 18012KT 27/06 A3008 RMK A01 T02700060  RH  026%=      5-min Rain = 0
KLO1 142102Z 19010KT 27/06 A3008 RMK A01 T02700061  RH  026%=      5-min Rain = 0
KLO1 142103Z 19011KT 27/06 A3008 RMK A01 T02730062  RH  026%=      5-min Rain = 0
KLO1 142104Z 20013KT 27/06 A3008 RMK A01 T02720059  RH  026%=      5-min Rain = 0
KLO1 142105Z 20012KT 27/06 A3008 RMK A01 T02710059  RH  026%=      5-min Rain = 0
KLO1 142106Z 19012KT 27/06 A3008 RMK A01 T02720060  RH  026%=      5-min Rain = 0
KLO1 142107Z 18012KT 27/06 A3008 RMK A01 T02730061  RH  026%=      5-min Rain = 0
KLO1 142108Z 19010KT 27/06 A3008 RMK A01 T02740060  RH  026%=      5-min Rain = 0
KLO1 142109Z 18011KT 27/06 A3008 RMK A01 T02730061  RH  026%=      5-min Rain = 0
KLO1 142110Z 18014KT 27/06 A3008 RMK A01 T02720059  RH  026%=      5-min Rain = 0
KLO1 142111Z 18015KT 27/06 A3008 RMK A01 T02710057  RH  025%=      5-min Rain = 0
KLO1 142112Z 20016KT 27/06 A3008 RMK A01 T02700055  RH  025%=      5-min Rain = 0
KLO1 142113Z 20013KT 27/05 A3008 RMK A01 T02690053  RH  025%=      5-min Rain = 0
KLO1 142114Z 18011KT 27/06 A3008 RMK A01 T02710055  RH  025%=      5-min Rain = 0
KLO1 142115Z 19013KT 27/06 A3008 RMK A01 T02730056  RH  025%=      5-min Rain = 0
KLO1 142116Z 18013KT 27/06 A3007 RMK A01 T02720056  RH  025%=      5-min Rain = 0
KLO1 142117Z 17014KT 27/06 A3007 RMK A01 T02720055  RH  025%=      5-min Rain = 0
KLO1 142118Z 17013KT 27/06 A3007 RMK A01 T02720055  RH  025%=      5-min Rain = 0
KLO1 142119Z 19013KT 27/06 A3007 RMK A01 T02720055  RH  025%=      5-min Rain = 0
KLO1 142120Z 19015KT 27/05 A3007 RMK A01 T02720052  RH  025%=      5-min Rain = 0
KLO1 142121Z 20015KT 27/05 A3007 RMK A01 T02730051  RH  024%=      5-min Rain = 0
KLO1 142122Z 19013KT 27/05 A3007 RMK A01 T02740054  RH  025%=      5-min Rain = 0
KLO1 142123Z 19012KT 28/05 A3007 RMK A01 T02750050  RH  024%=      5-min Rain = 0
KLO1 142124Z 19013KT 28/05 A3007 RMK A01 T02750050  RH  024%=      5-min Rain = 0
KLO1 142125Z 19013KT 28/05 A3007 RMK A01 T02760050  RH  024%=      5-min Rain = 0
KLO1 142126Z 20013KT 28/05 A3007 RMK A01 T02760049  RH  024%=      5-min Rain = 0
KLO1 142127Z 21013KT 28/05 A3007 RMK A01 T02770050  RH  024%=      5-min Rain = 0
KLO1 142128Z 20014KT 28/05 A3007 RMK A01 T02790051  RH  023%=      5-min Rain = 0
KLO1 142129Z 19013KT 28/05 A3007 RMK A01 T02780053  RH  024%=      5-min Rain = 0
KLO1 142130Z 19014KT 28/05 A3007 RMK A01 T02770054  RH  024%=      5-min Rain = 0
KLO1 142131Z 19012KT 28/05 A3007 RMK A01 T02760054  RH  024%=      5-min Rain = 0
KLO1 142132Z 19011KT 28/06 A3007 RMK A01 T02760055  RH  024%=      5-min Rain = 0
KLO1 142133Z 19015KT 28/05 A3006 RMK A01 T02770054  RH  024%=      5-min Rain = 0
KLO1 142134Z 20014KT 28/06 A3006 RMK A01 T02770056  RH  024%=      5-min Rain = 0
KLO1 142135Z 20013KT 28/06 A3006 RMK A01 T02770055  RH  024%=      5-min Rain = 0
KLO1 142136Z 20014KT 28/06 A3006 RMK A01 T02770056  RH  025%=      5-min Rain = 0
KLO1 142137Z 18010KT 28/06 A3006 RMK A01 T02770058  RH  025%=      5-min Rain = 0
KLO1 142138Z 18011KT 28/06 A3006 RMK A01 T02780057  RH  025%=      5-min Rain = 0
KLO1 142139Z 18012KT 28/06 A3006 RMK A01 T02790056  RH  024%=      5-min Rain = 0
KLO1 142140Z 18015KT 28/05 A3006 RMK A01 T02810053  RH  023%=      5-min Rain = 0
KLO1 142141Z 19016KT 28/05 A3006 RMK A01 T02820052  RH  023%=      5-min Rain = 0
KLO1 142142Z 19012KT 28/05 A3006 RMK A01 T02810051  RH  023%=      5-min Rain = 0
KLO1 142143Z 18011G16KT 28/05 A3006 RMK A01 T02810053  RH  023%=      5-min Rain = 0
KLO1 142144Z 18016KT 28/05 A3006 RMK A01 T02840050  RH  022%=      5-min Rain = 0
KLO1 142145Z 18016KT 28/05 A3006 RMK A01 T02830047  RH  022%=      5-min Rain = 0
KLO1 142146Z 18013KT 28/05 A3006 RMK A01 T02810046  RH  022%=      5-min Rain = 0
KLO1 142147Z 18014KT 28/05 A3006 RMK A01 T02810049  RH  023%=      5-min Rain = 0
KLO1 142148Z 19014KT 28/05 A3006 RMK A01 T02810051  RH  023%=      5-min Rain = 0
KLO1 142149Z 19014G20KT 28/05 A3005 RMK A01 T02820052  RH  023%=      5-min Rain = 0
KLO1 142150Z 20016KT 28/05 A3005 RMK A01 T02820051  RH  023%=      5-min Rain = 0
KLO1 142151Z 20013KT 28/05 A3005 RMK A01 T02810050  RH  023%=      5-min Rain = 0
KLO1 142152Z 18014G19KT 28/05 A3005 RMK A01 T02800051  RH  023%=      5-min Rain = 0
KLO1 142153Z 18018KT 28/05 A3005 RMK A01 T02800051  RH  023%=      5-min Rain = 0
KLO1 142154Z 18016KT 28/05 A3005 RMK A01 T02790051  RH  023%=      5-min Rain = 0
KLO1 142155Z 18014KT 28/05 A3005 RMK A01 T02780052  RH  024%=      5-min Rain = 0
KLO1 142156Z 19017KT 28/05 A3005 RMK A01 T02780053  RH  024%=      5-min Rain = 0
KLO1 142157Z 19015KT 28/05 A3005 RMK A01 T02790054  RH  024%=      5-min Rain = 0
KLO1 142158Z 19012KT 28/05 A3005 RMK A01 T02790054  RH  024%=      5-min Rain = 0
KLO1 142159Z 17012KT 28/05 A3005 RMK A01 T02800054  RH  024%=      5-min Rain = 0
KLO1 142200Z 18011KT 28/05 A3005 RMK A01 T02790053  RH  024%=      5-min Rain = 0
KLO1 142201Z 17012KT 28/05 A3005 RMK A01 T02780053  RH  024%=      5-min Rain = 0
KLO1 142202Z 17018KT 28/05 A3005 RMK A01 T02780053  RH  024%=      5-min Rain = 0
KLO1 142203Z 18013KT 28/05 A3005 RMK A01 T02780054  RH  024%=      5-min Rain = 0
KLO1 142204Z 19015KT 28/05 A3005 RMK A01 T02780054  RH  024%=      5-min Rain = 0
KLO1 142205Z 18014KT 28/05 A3005 RMK A01 T02780054  RH  024%=      5-min Rain = 0
KLO1 142206Z 17014KT 28/05 A3005 RMK A01 T02790054  RH  024%=      5-min Rain = 0
KLO1 142207Z 18014KT 28/05 A3005 RMK A01 T02790053  RH  024%=      5-min Rain = 0
KLO1 142208Z 18012KT 28/05 A3005 RMK A01 T02780053  RH  024%=      5-min Rain = 0
KLO1 142209Z 17014KT 28/06 A3005 RMK A01 T02770055  RH  024%=      5-min Rain = 0
KLO1 142210Z 17015KT 28/06 A3004 RMK A01 T02770055  RH  024%=      5-min Rain = 0
KLO1 142211Z 16015KT 28/05 A3004 RMK A01 T02760054  RH  024%=      5-min Rain = 0
KLO1 142212Z 17016KT 28/06 A3004 RMK A01 T02760055  RH  024%=      5-min Rain = 0
KLO1 142213Z 18014KT 28/05 A3004 RMK A01 T02770054  RH  024%=      5-min Rain = 0
KLO1 142214Z 18011KT 28/05 A3004 RMK A01 T02770054  RH  024%=      5-min Rain = 0
KLO1 142215Z 18013KT 28/06 A3004 RMK A01 T02780057  RH  025%=      5-min Rain = 0
KLO1 142216Z 17012KT 28/06 A3004 RMK A01 T02790058  RH  025%=      5-min Rain = 0
KLO1 142217Z 17018KT 28/06 A3004 RMK A01 T02800058  RH  024%=      5-min Rain = 0
KLO1 142218Z 19014KT 28/06 A3004 RMK A01 T02800057  RH  024%=      5-min Rain = 0
KLO1 142219Z 18015KT 28/06 A3004 RMK A01 T02800056  RH  024%=      5-min Rain = 0
KLO1 142220Z 18016KT 28/06 A3004 RMK A01 T02790057  RH  024%=      5-min Rain = 0
KLO1 142221Z 18015KT 28/06 A3004 RMK A01 T02780057  RH  024%=      5-min Rain = 0
KLO1 142222Z 19016KT 28/06 A3004 RMK A01 T02790056  RH  024%=      5-min Rain = 0
KLO1 142223Z 18016G21KT 28/06 A3004 RMK A01 T02790055  RH  024%=      5-min Rain = 0
KLO1 142224Z 18018KT 28/05 A3004 RMK A01 T02780053  RH  024%=      5-min Rain = 0
KLO1 142225Z 19018KT 28/05 A3004 RMK A01 T02760052  RH  024%=      5-min Rain = 0
KLO1 142226Z 19017KT 28/05 A3003 RMK A01 T02750053  RH  024%=      5-min Rain = 0
KLO1 142227Z 19017KT 27/05 A3004 RMK A01 T02740052  RH  024%=      5-min Rain = 0
KLO1 142228Z 19018KT 27/05 A3003 RMK A01 T02730053  RH  025%=      5-min Rain = 0
KLO1 142229Z 19017KT 27/05 A3004 RMK A01 T02720053  RH  025%=      5-min Rain = 0
KLO1 142230Z 19017KT 27/05 A3003 RMK A01 T02710054  RH  025%=      5-min Rain = 0
KLO1 142231Z 18015KT 27/05 A3003 RMK A01 T02700054  RH  025%=      5-min Rain = 0
KLO1 142232Z 18017KT 27/05 A3003 RMK A01 T02690054  RH  025%=      5-min Rain = 0
KLO1 142233Z 18019KT 27/05 A3003 RMK A01 T02690054  RH  025%=      5-min Rain = 0
KLO1 142234Z 19014KT 27/05 A3003 RMK A01 T02680054  RH  026%=      5-min Rain = 0
KLO1 142235Z 18014KT 27/06 A3003 RMK A01 T02670055  RH  026%=      5-min Rain = 0
KLO1 142236Z 18013KT 27/06 A3003 RMK A01 T02670055  RH  026%=      5-min Rain = 0
KLO1 142237Z 18015KT 27/06 A3003 RMK A01 T02670055  RH  026%=      5-min Rain = 0
KLO1 142238Z 18012KT 27/05 A3003 RMK A01 T02670054  RH  026%=      5-min Rain = 0
KLO1 142239Z 18013KT 27/06 A3003 RMK A01 T02670055  RH  026%=      5-min Rain = 0
KLO1 142240Z 18014KT 27/05 A3003 RMK A01 T02670054  RH  026%=      5-min Rain = 0
KLO1 142241Z 18014KT 27/06 A3003 RMK A01 T02670055  RH  026%=      5-min Rain = 0
KLO1 142242Z 18012KT 27/06 A3003 RMK A01 T02670055  RH  026%=      5-min Rain = 0
KLO1 142243Z 18011KT 27/06 A3003 RMK A01 T02670055  RH  026%=      5-min Rain = 0
KLO1 142244Z 18011KT 27/06 A3003 RMK A01 T02690056  RH  026%=      5-min Rain = 0
KLO1 142245Z 18011KT 27/06 A3002 RMK A01 T02710056  RH  025%=      5-min Rain = 0
KLO1 142246Z 18014KT 27/06 A3002 RMK A01 T02720056  RH  025%=      5-min Rain = 0
KLO1 142247Z 18013KT 27/06 A3002 RMK A01 T02740057  RH  025%=      5-min Rain = 0
KLO1 142248Z 19012KT 28/06 A3002 RMK A01 T02750057  RH  025%=      5-min Rain = 0
KLO1 142249Z 18012KT 28/06 A3002 RMK A01 T02750057  RH  025%=      5-min Rain = 0
KLO1 142250Z 18013KT 28/06 A3003 RMK A01 T02760058  RH  025%=      5-min Rain = 0
KLO1 142251Z 19013KT 28/06 A3002 RMK A01 T02780059  RH  025%=      5-min Rain = 0
KLO1 142252Z 19011KT 28/06 A3002 RMK A01 T02770058  RH  025%=      5-min Rain = 0
KLO1 142253Z 19014KT 28/06 A3002 RMK A01 T02770059  RH  025%=      5-min Rain = 0
KLO1 142254Z 18012KT 28/06 A3002 RMK A01 T02770058  RH  025%=      5-min Rain = 0
KLO1 142255Z 19013KT 28/06 A3002 RMK A01 T02770059  RH  025%=      5-min Rain = 0
KLO1 142256Z 18016KT 28/06 A3002 RMK A01 T02770058  RH  025%=      5-min Rain = 0
KLO1 142257Z 18015KT 28/06 A3002 RMK A01 T02750058  RH  025%=      5-min Rain = 0
KLO1 142258Z 17016KT 27/06 A3002 RMK A01 T02740058  RH  025%=      5-min Rain = 0
KLO1 142259Z 18017KT 27/06 A3002 RMK A01 T02740058  RH  025%=      5-min Rain = 0
KLO1 142300Z 18014KT 27/06 A3002 RMK A01 T02740058  RH  025%=      5-min Rain = 0
KLO1 142301Z 19012KT 28/06 A3002 RMK A01 T02750059  RH  025%=      5-min Rain = 0
KLO1 142302Z 19015KT 28/06 A3002 RMK A01 T02760060  RH  025%=      5-min Rain = 0
KLO1 142303Z 19014KT 28/06 A3002 RMK A01 T02750060  RH  025%=      5-min Rain = 0
KLO1 142304Z 18014KT 28/06 A3002 RMK A01 T02750060  RH  025%=      5-min Rain = 0
KLO1 142305Z 18014KT 28/06 A3002 RMK A01 T02750060  RH  025%=      5-min Rain = 0
KLO1 142306Z 18016KT 28/06 A3002 RMK A01 T02750060  RH  026%=      5-min Rain = 0
KLO1 142307Z 19013KT 27/06 A3002 RMK A01 T02730060  RH  026%=      5-min Rain = 0
KLO1 142308Z 19015KT 27/06 A3002 RMK A01 T02720060  RH  026%=      5-min Rain = 0
KLO1 142309Z 18013KT 27/06 A3002 RMK A01 T02710060  RH  026%=      5-min Rain = 0
KLO1 142310Z 18013KT 27/06 A3002 RMK A01 T02700059  RH  026%=      5-min Rain = 0
KLO1 142311Z 18013KT 27/06 A3002 RMK A01 T02690059  RH  026%=      5-min Rain = 0
KLO1 142312Z 18014KT 27/06 A3002 RMK A01 T02680059  RH  026%=      5-min Rain = 0
KLO1 142313Z 18014KT 27/06 A3002 RMK A01 T02680059  RH  026%=      5-min Rain = 0
KLO1 142314Z 18012KT 27/06 A3002 RMK A01 T02680059  RH  026%=      5-min Rain = 0
KLO1 142315Z 18012KT 27/06 A3002 RMK A01 T02680059  RH  026%=      5-min Rain = 0
KLO1 142316Z 17011KT 27/06 A3002 RMK A01 T02670059  RH  027%=      5-min Rain = 0
KLO1 142317Z 17012KT 27/06 A3001 RMK A01 T02670059  RH  027%=      5-min Rain = 0
KLO1 142318Z 18014KT 27/06 A3001 RMK A01 T02670059  RH  027%=      5-min Rain = 0
KLO1 142319Z 19014KT 27/06 A3001 RMK A01 T02660059  RH  027%=      5-min Rain = 0
KLO1 142320Z 19013KT 27/06 A3001 RMK A01 T02660059  RH  027%=      5-min Rain = 0
KLO1 142321Z 18013KT 27/06 A3001 RMK A01 T02660059  RH  027%=      5-min Rain = 0
KLO1 142322Z 19013KT 27/06 A3001 RMK A01 T02660059  RH  027%=      5-min Rain = 0
KLO1 142323Z 18014KT 27/06 A3001 RMK A01 T02660059  RH  027%=      5-min Rain = 0
KLO1 142324Z 18014KT 27/06 A3001 RMK A01 T02650059  RH  027%=      5-min Rain = 0
KLO1 142325Z 18013KT 27/06 A3001 RMK A01 T02650059  RH  027%=      5-min Rain = 0
KLO1 142326Z 19012KT 27/06 A3001 RMK A01 T02650059  RH  027%=      5-min Rain = 0
KLO1 142327Z 19011KT 27/06 A3001 RMK A01 T02650059  RH  027%=      5-min Rain = 0
KLO1 142328Z 19010KT 27/06 A3001 RMK A01 T02650059  RH  027%=      5-min Rain = 0
KLO1 142329Z 19012KT 27/06 A3001 RMK A01 T02660060  RH  027%=      5-min Rain = 0
KLO1 142330Z 19013KT 27/06 A3001 RMK A01 T02660060  RH  027%=      5-min Rain = 0
KLO1 142331Z 18014KT 27/06 A3001 RMK A01 T02680061  RH  027%=      5-min Rain = 0
KLO1 142332Z 18014KT 27/06 A3001 RMK A01 T02690061  RH  027%=      5-min Rain = 0
KLO1 142333Z 18013G18KT 27/06 A3001 RMK A01 T02690061  RH  026%=      5-min Rain = 0
KLO1 142334Z 19015KT 27/06 A3001 RMK A01 T02700061  RH  026%=      5-min Rain = 0
KLO1 142335Z 19014KT 27/06 A3001 RMK A01 T02700061  RH  026%=      5-min Rain = 0
KLO1 142336Z 19014KT 27/06 A3001 RMK A01 T02690061  RH  027%=      5-min Rain = 0
KLO1 142337Z 19014KT 27/06 A3001 RMK A01 T02690061  RH  027%=      5-min Rain = 0
KLO1 142338Z 19013KT 27/06 A3001 RMK A01 T02680061  RH  027%=      5-min Rain = 0
KLO1 142339Z 18015KT 27/06 A3001 RMK A01 T02680062  RH  027%=      5-min Rain = 0
KLO1 142340Z 19014KT 27/06 A3001 RMK A01 T02670061  RH  027%=      5-min Rain = 0
KLO1 142341Z 19014KT 27/06 A3001 RMK A01 T02670061  RH  027%=      5-min Rain = 0
KLO1 142342Z 19014KT 27/06 A3001 RMK A01 T02670061  RH  027%=      5-min Rain = 0
KLO1 142343Z 19014KT 27/06 A3001 RMK A01 T02670061  RH  027%=      5-min Rain = 0
KLO1 142344Z 19014KT 27/06 A3001 RMK A01 T02670061  RH  027%=      5-min Rain = 0
KLO1 142345Z 19015KT 27/06 A3001 RMK A01 T02670061  RH  027%=      5-min Rain = 0
KLO1 142346Z 19015KT 27/06 A3001 RMK A01 T02670061  RH  027%=      5-min Rain = 0
KLO1 142347Z 19015KT 27/06 A3001 RMK A01 T02680061  RH  027%=      5-min Rain = 0
KLO1 142348Z 19013KT 27/06 A3001 RMK A01 T02670060  RH  027%=      5-min Rain = 0
KLO1 142349Z 19013KT 27/06 A3001 RMK A01 T02670061  RH  027%=      5-min Rain = 0
KLO1 142350Z 18013KT 27/06 A3001 RMK A01 T02660060  RH  027%=      5-min Rain = 0
KLO1 142351Z 19012KT 27/06 A3001 RMK A01 T02660061  RH  027%=      5-min Rain = 0
KLO1 142352Z 18011KT 27/06 A3001 RMK A01 T02660061  RH  027%=      5-min Rain = 0
KLO1 142353Z 18011KT 27/06 A3001 RMK A01 T02650061  RH  027%=      5-min Rain = 0
KLO1 142354Z 18010KT 27/06 A3001 RMK A01 T02650061  RH  027%=      5-min Rain = 0
KLO1 142355Z 18010KT 26/06 A3001 RMK A01 T02640061  RH  027%=      5-min Rain = 0
KLO1 142356Z 17013KT 26/06 A3001 RMK A01 T02640062  RH  027%=      5-min Rain = 0
KLO1 142357Z 18011KT 26/06 A3001 RMK A01 T02640063  RH  028%=      5-min Rain = 0
KLO1 142358Z 17015KT 26/06 A3001 RMK A01 T02640064  RH  028%=      5-min Rain = 0
KLO1 142359Z 17012KT 26/07 A3001 RMK A01 T02640065  RH  028%=      5-min Rain = 0
KLO1 150000Z 18012KT 26/07 A3001 RMK A01 T02640066  RH  028%=      5-min Rain = 0
KLO1 150001Z 17012G17KT 26/07 A3001 RMK A01 T02630066  RH  028%=      5-min Rain = 0
KLO1 150002Z 17015KT 26/07 A3001 RMK A01 T02630067  RH  029%=      5-min Rain = 0
KLO1 150003Z 18015KT 26/07 A3001 RMK A01 T02620067  RH  029%=      5-min Rain = 0
KLO1 150004Z 18014KT 26/07 A3001 RMK A01 T02620067  RH  029%=      5-min Rain = 0
KLO1 150005Z 17013KT 26/07 A3001 RMK A01 T02620068  RH  029%=      5-min Rain = 0
KLO1 150006Z 18014KT 26/07 A3001 RMK A01 T02610068  RH  029%=      5-min Rain = 0
KLO1 150007Z 17014KT 26/07 A3001 RMK A01 T02600068  RH  029%=      5-min Rain = 0
KLO1 150008Z 18013KT 26/07 A3001 RMK A01 T02590068  RH  030%=      5-min Rain = 0
KLO1 150009Z 18013KT 26/07 A3001 RMK A01 T02590068  RH  030%=      5-min Rain = 0
KLO1 150010Z 17011KT 26/07 A3001 RMK A01 T02580068  RH  030%=      5-min Rain = 0
KLO1 150011Z 18012KT 26/07 A3001 RMK A01 T02580068  RH  030%=      5-min Rain = 0
KLO1 150012Z 18014KT 26/07 A3001 RMK A01 T02580068  RH  030%=      5-min Rain = 0
KLO1 150013Z 18012KT 26/07 A3001 RMK A01 T02580067  RH  030%=      5-min Rain = 0
KLO1 150014Z 19012KT 26/07 A3001 RMK A01 T02570066  RH  030%=      5-min Rain = 0
KLO1 150015Z 19012KT 26/07 A3001 RMK A01 T02560066  RH  030%=      5-min Rain = 0
KLO1 150016Z 19012KT 26/07 A3001 RMK A01 T02550066  RH  030%=      5-min Rain = 0
KLO1 150017Z 19012KT 25/07 A3001 RMK A01 T02540066  RH  030%=      5-min Rain = 0
KLO1 150018Z 18011KT 25/07 A3001 RMK A01 T02530066  RH  030%=      5-min Rain = 0
KLO1 150019Z 18011KT 25/07 A3001 RMK A01 T02520066  RH  030%=      5-min Rain = 0
KLO1 150020Z 18013KT 25/07 A3001 RMK A01 T02520066  RH  030%=      5-min Rain = 0
KLO1 150021Z 17014KT 25/07 A3001 RMK A01 T02520068  RH  031%=      5-min Rain = 0
KLO1 150022Z 17014KT 25/07 A3001 RMK A01 T02510070  RH  031%=      5-min Rain = 0
KLO1 150023Z 17013KT 25/07 A3001 RMK A01 T02510071  RH  032%=      5-min Rain = 0
KLO1 150024Z 17011KT 25/07 A3001 RMK A01 T02500071  RH  032%=      5-min Rain = 0
KLO1 150025Z 17011KT 25/07 A3001 RMK A01 T02480071  RH  032%=      5-min Rain = 0
KLO1 150026Z 17013KT 25/07 A3001 RMK A01 T02470072  RH  033%=      5-min Rain = 0
KLO1 150027Z 18015KT 25/07 A3001 RMK A01 T02460072  RH  033%=      5-min Rain = 0
KLO1 150028Z 18014KT 25/07 A3001 RMK A01 T02460073  RH  033%=      5-min Rain = 0
KLO1 150029Z 18016KT 25/07 A3001 RMK A01 T02450073  RH  033%=      5-min Rain = 0
KLO1 150030Z 18017KT 25/07 A3001 RMK A01 T02450073  RH  033%=      5-min Rain = 0
KLO1 150031Z 18018KT 25/07 A3001 RMK A01 T02450074  RH  033%=      5-min Rain = 0
KLO1 150032Z 18017KT 24/07 A3002 RMK A01 T02440074  RH  034%=      5-min Rain = 0
KLO1 150033Z 18017KT 24/07 A3002 RMK A01 T02440074  RH  034%=      5-min Rain = 0
KLO1 150034Z 19017KT 24/07 A3002 RMK A01 T02430074  RH  034%=      5-min Rain = 0
KLO1 150035Z 18015KT 24/07 A3002 RMK A01 T02430074  RH  034%=      5-min Rain = 0
KLO1 150036Z 18015KT 24/07 A3002 RMK A01 T02420074  RH  034%=      5-min Rain = 0
KLO1 150037Z 18013KT 24/07 A3002 RMK A01 T02410073  RH  034%=      5-min Rain = 0
KLO1 150038Z 18015KT 24/07 A3002 RMK A01 T02390073  RH  034%=      5-min Rain = 0
KLO1 150039Z 18012G17KT 24/07 A3002 RMK A01 T02390074  RH  035%=      5-min Rain = 0
KLO1 150040Z 18014KT 24/07 A3002 RMK A01 T02390074  RH  035%=      5-min Rain = 0
KLO1 150041Z 18016KT 24/07 A3002 RMK A01 T02390074  RH  035%=      5-min Rain = 0
KLO1 150042Z 18015KT 24/08 A3002 RMK A01 T02390075  RH  035%=      5-min Rain = 0
KLO1 150043Z 18014KT 24/07 A3002 RMK A01 T02380074  RH  035%=      5-min Rain = 0
KLO1 150044Z 18015KT 24/07 A3002 RMK A01 T02370074  RH  035%=      5-min Rain = 0
KLO1 150045Z 18015KT 24/08 A3002 RMK A01 T02370075  RH  035%=      5-min Rain = 0
KLO1 150046Z 18014KT 24/08 A3002 RMK A01 T02370075  RH  035%=      5-min Rain = 0
KLO1 150047Z 18013KT 24/08 A3002 RMK A01 T02370075  RH  035%=      5-min Rain = 0
KLO1 150048Z 18012KT 24/07 A3002 RMK A01 T02350074  RH  036%=      5-min Rain = 0
KLO1 150049Z 18012KT 23/07 A3002 RMK A01 T02340074  RH  036%=      5-min Rain = 0
KLO1 150050Z 18011KT 23/08 A3002 RMK A01 T02330075  RH  036%=      5-min Rain = 0
KLO1 150051Z 18012KT 23/07 A3002 RMK A01 T02320074  RH  036%=      5-min Rain = 0
KLO1 150052Z 18011KT 23/07 A3002 RMK A01 T02320074  RH  036%=      5-min Rain = 0
KLO1 150053Z 18010KT 23/07 A3002 RMK A01 T02310074  RH  036%=      5-min Rain = 0
KLO1 150054Z 18011KT 23/07 A3002 RMK A01 T02300074  RH  037%=      5-min Rain = 0
KLO1 150055Z 18010KT 23/07 A3002 RMK A01 T02290074  RH  037%=      5-min Rain = 0
KLO1 150056Z 18010KT 23/07 A3002 RMK A01 T02280074  RH  037%=      5-min Rain = 0
KLO1 150057Z 18010KT 23/07 A3002 RMK A01 T02280074  RH  037%=      5-min Rain = 0
KLO1 150058Z 17010KT 23/07 A3002 RMK A01 T02270074  RH  037%=      5-min Rain = 0
KLO1 150059Z 17010KT 23/07 A3002 RMK A01 T02270074  RH  037%=      5-min Rain = 0
KLO1 150100Z 17010KT 23/07 A3002 RMK A01 T02270074  RH  037%=      5-min Rain = 0
KLO1 150101Z 18009KT 23/07 A3002 RMK A01 T02270074  RH  037%=      5-min Rain = 0
KLO1 150102Z 17008KT 23/07 A3002 RMK A01 T02260073  RH  037%=      5-min Rain = 0
KLO1 150103Z 17008KT 22/07 A3003 RMK A01 T02240073  RH  038%=      5-min Rain = 0
KLO1 150104Z 17008KT 22/07 A3003 RMK A01 T02230074  RH  038%=      5-min Rain = 0
KLO1 150105Z 17009KT 22/07 A3003 RMK A01 T02220073  RH  038%=      5-min Rain = 0
KLO1 150106Z 17009KT 22/07 A3003 RMK A01 T02220074  RH  038%=      5-min Rain = 0
KLO1 150107Z 17009KT 22/07 A3003 RMK A01 T02210074  RH  039%=      5-min Rain = 0
KLO1 150108Z 17009KT 22/08 A3003 RMK A01 T02210075  RH  039%=      5-min Rain = 0
KLO1 150109Z 17009KT 22/08 A3003 RMK A01 T02210075  RH  039%=      5-min Rain = 0
KLO1 150110Z 17009KT 22/08 A3003 RMK A01 T02200075  RH  039%=      5-min Rain = 0
KLO1 150111Z 17009KT 22/08 A3003 RMK A01 T02190075  RH  039%=      5-min Rain = 0
KLO1 150112Z 17009KT 22/08 A3003 RMK A01 T02180075  RH  040%=      5-min Rain = 0
KLO1 150113Z 17013KT 22/08 A3002 RMK A01 T02190076  RH  040%=      5-min Rain = 0
KLO1 150114Z 17012KT 22/08 A3002 RMK A01 T02200077  RH  040%=      5-min Rain = 0
KLO1 150115Z 18013KT 22/08 A3002 RMK A01 T02210078  RH  040%=      5-min Rain = 0
KLO1 150116Z 18012KT 22/08 A3003 RMK A01 T02210078  RH  040%=      5-min Rain = 0
KLO1 150117Z 18012KT 22/08 A3003 RMK A01 T02220079  RH  040%=      5-min Rain = 0
KLO1 150118Z 18012KT 22/08 A3003 RMK A01 T02210078  RH  040%=      5-min Rain = 0
KLO1 150119Z 18010KT 22/08 A3003 RMK A01 T02200078  RH  040%=      5-min Rain = 0
KLO1 150120Z 18011KT 22/08 A3003 RMK A01 T02190078  RH  040%=      5-min Rain = 0
KLO1 150121Z 18011KT 22/08 A3003 RMK A01 T02180078  RH  040%=      5-min Rain = 0
KLO1 150122Z 17010KT 22/08 A3003 RMK A01 T02170078  RH  041%=      5-min Rain = 0
KLO1 150123Z 18010KT 22/08 A3003 RMK A01 T02170078  RH  041%=      5-min Rain = 0
KLO1 150124Z 18011KT 22/08 A3003 RMK A01 T02160078  RH  041%=      5-min Rain = 0
KLO1 150125Z 18011KT 22/08 A3003 RMK A01 T02150079  RH  041%=      5-min Rain = 0
KLO1 150126Z 18010KT 22/08 A3003 RMK A01 T02160079  RH  041%=      5-min Rain = 0
KLO1 150127Z 17010KT 22/08 A3003 RMK A01 T02160079  RH  041%=      5-min Rain = 0
KLO1 150128Z 18010KT 22/08 A3003 RMK A01 T02160080  RH  041%=      5-min Rain = 0
KLO1 150129Z 18010KT 22/08 A3003 RMK A01 T02160080  RH  042%=      5-min Rain = 0
KLO1 150130Z 17011KT 22/08 A3003 RMK A01 T02150080  RH  042%=      5-min Rain = 0
KLO1 150131Z 17010KT 22/08 A3003 RMK A01 T02150081  RH  042%=      5-min Rain = 0
KLO1 150132Z 17011KT 22/08 A3003 RMK A01 T02150081  RH  042%=      5-min Rain = 0
KLO1 150133Z 17010KT 21/08 A3003 RMK A01 T02140081  RH  042%=      5-min Rain = 0
KLO1 150134Z 17010KT 21/08 A3003 RMK A01 T02130081  RH  043%=      5-min Rain = 0
KLO1 150135Z 17009KT 21/08 A3003 RMK A01 T02130081  RH  043%=      5-min Rain = 0
KLO1 150136Z 17009KT 21/08 A3003 RMK A01 T02120081  RH  043%=      5-min Rain = 0
KLO1 150137Z 17009KT 21/08 A3003 RMK A01 T02110082  RH  043%=      5-min Rain = 0
KLO1 150138Z 17009KT 21/08 A3003 RMK A01 T02100082  RH  044%=      5-min Rain = 0
KLO1 150139Z 17009KT 21/08 A3003 RMK A01 T02100082  RH  044%=      5-min Rain = 0
KLO1 150140Z 17010KT 21/08 A3003 RMK A01 T02090083  RH  044%=      5-min Rain = 0
KLO1 150141Z 16010KT 21/08 A3003 RMK A01 T02090084  RH  045%=      5-min Rain = 0
KLO1 150142Z 17010KT 21/08 A3003 RMK A01 T02090084  RH  045%=      5-min Rain = 0
KLO1 150143Z 17011KT 21/09 A3003 RMK A01 T02080085  RH  045%=      5-min Rain = 0
KLO1 150144Z 17010KT 21/09 A3003 RMK A01 T02090085  RH  045%=      5-min Rain = 0
KLO1 150145Z 17010KT 21/09 A3003 RMK A01 T02090085  RH  045%=      5-min Rain = 0
KLO1 150146Z 17010KT 21/09 A3003 RMK A01 T02080085  RH  045%=      5-min Rain = 0
KLO1 150147Z 17009KT 21/09 A3003 RMK A01 T02080085  RH  045%=      5-min Rain = 0
KLO1 150148Z 17011KT 21/09 A3002 RMK A01 T02070085  RH  045%=      5-min Rain = 0
KLO1 150149Z 17010KT 21/09 A3002 RMK A01 T02070085  RH  046%=      5-min Rain = 0
KLO1 150150Z 17012KT 21/09 A3002 RMK A01 T02070086  RH  046%=      5-min Rain = 0
KLO1 150151Z 17010KT 21/09 A3002 RMK A01 T02080087  RH  046%=      5-min Rain = 0
KLO1 150152Z 17010KT 21/09 A3002 RMK A01 T02080086  RH  046%=      5-min Rain = 0
KLO1 150153Z 17010KT 21/09 A3002 RMK A01 T02070086  RH  046%=      5-min Rain = 0
KLO1 150154Z 17009KT 21/09 A3002 RMK A01 T02070086  RH  046%=      5-min Rain = 0
KLO1 150155Z 17009KT 21/09 A3002 RMK A01 T02060086  RH  046%=      5-min Rain = 0
KLO1 150156Z 17009KT 21/09 A3003 RMK A01 T02050086  RH  046%=      5-min Rain = 0
KLO1 150157Z 17009KT 20/09 A3003 RMK A01 T02040086  RH  047%=      5-min Rain = 0
KLO1 150158Z 17009KT 20/09 A3003 RMK A01 T02030086  RH  047%=      5-min Rain = 0
KLO1 150159Z 17009KT 20/09 A3003 RMK A01 T02030086  RH  047%=      5-min Rain = 0
KLO1 150200Z 17009KT 20/09 A3003 RMK A01 T02030086  RH  047%=      5-min Rain = 0
KLO1 150201Z 17009KT 20/09 A3003 RMK A01 T02030086  RH  047%=      5-min Rain = 0
KLO1 150202Z 17008KT 20/09 A3003 RMK A01 T02030087  RH  047%=      5-min Rain = 0
KLO1 150203Z 17010G15KT 20/09 A3003 RMK A01 T02020086  RH  047%=      5-min Rain = 0
KLO1 150204Z 17010KT 20/09 A3003 RMK A01 T02020088  RH  048%=      5-min Rain = 0
KLO1 150205Z 17009KT 20/09 A3003 RMK A01 T02030088  RH  048%=      5-min Rain = 0
KLO1 150206Z 17011KT 20/09 A3003 RMK A01 T02030088  RH  048%=      5-min Rain = 0
KLO1 150207Z 17010KT 20/09 A3003 RMK A01 T02030090  RH  048%=      5-min Rain = 0
KLO1 150208Z 18014KT 20/09 A3003 RMK A01 T02030090  RH  048%=      5-min Rain = 0
KLO1 150209Z 18013KT 20/09 A3003 RMK A01 T02040091  RH  048%=      5-min Rain = 0
KLO1 150210Z 18015KT 20/09 A3003 RMK A01 T02040091  RH  048%=      5-min Rain = 0
KLO1 150211Z 18014KT 21/09 A3003 RMK A01 T02050093  RH  049%=      5-min Rain = 0
KLO1 150212Z 18011KT 21/09 A3003 RMK A01 T02050093  RH  048%=      5-min Rain = 0
KLO1 150213Z 18013KT 20/09 A3003 RMK A01 T02040092  RH  049%=      5-min Rain = 0
KLO1 150214Z 18013KT 20/09 A3003 RMK A01 T02030093  RH  049%=      5-min Rain = 0
KLO1 150215Z 18012KT 20/09 A3003 RMK A01 T02030093  RH  049%=      5-min Rain = 0
KLO1 150216Z 18012KT 20/09 A3003 RMK A01 T02030093  RH  049%=      5-min Rain = 0
KLO1 150217Z 18012KT 20/09 A3003 RMK A01 T02020093  RH  050%=      5-min Rain = 0
KLO1 150218Z 18011KT 20/09 A3003 RMK A01 T02010093  RH  050%=      5-min Rain = 0
KLO1 150219Z 18011KT 20/09 A3003 RMK A01 T02010093  RH  050%=      5-min Rain = 0
KLO1 150220Z 18013KT 20/09 A3003 RMK A01 T02010094  RH  050%=      5-min Rain = 0
KLO1 150221Z 18012KT 20/09 A3003 RMK A01 T02000094  RH  050%=      5-min Rain = 0
KLO1 150222Z 18012KT 20/09 A3003 RMK A01 T02010094  RH  050%=      5-min Rain = 0
KLO1 150223Z 18012KT 20/09 A3003 RMK A01 T02000094  RH  050%=      5-min Rain = 0
KLO1 150224Z 18013KT 20/09 A3003 RMK A01 T02000094  RH  051%=      5-min Rain = 0
KLO1 150225Z 18011KT 20/09 A3003 RMK A01 T01990094  RH  051%=      5-min Rain = 0
KLO1 150226Z 18012G17KT 20/09 A3003 RMK A01 T01980094  RH  051%=      5-min Rain = 0
KLO1 150227Z 18014KT 20/10 A3003 RMK A01 T01980095  RH  051%=      5-min Rain = 0
KLO1 150228Z 18013KT 20/10 A3003 RMK A01 T01980095  RH  051%=      5-min Rain = 0
KLO1 150229Z 18012KT 20/10 A3003 RMK A01 T01980095  RH  051%=      5-min Rain = 0
KLO1 150230Z 18013KT 20/10 A3003 RMK A01 T01980095  RH  051%=      5-min Rain = 0
KLO1 150231Z 18014KT 20/10 A3003 RMK A01 T01970095  RH  052%=      5-min Rain = 0
KLO1 150232Z 18013KT 20/10 A3003 RMK A01 T01970096  RH  052%=      5-min Rain = 0
KLO1 150233Z 18012KT 20/10 A3003 RMK A01 T01970095  RH  052%=      5-min Rain = 0
KLO1 150234Z 18015KT 20/10 A3003 RMK A01 T01970095  RH  052%=      5-min Rain = 0
KLO1 150235Z 18012KT 20/10 A3003 RMK A01 T01960095  RH  052%=      5-min Rain = 0
KLO1 150236Z 18012KT 20/10 A3003 RMK A01 T01960096  RH  052%=      5-min Rain = 0
KLO1 150237Z 18015KT 20/10 A3003 RMK A01 T01960096  RH  052%=      5-min Rain = 0
KLO1 150238Z 18012KT 20/10 A3003 RMK A01 T01960096  RH  053%=      5-min Rain = 0
KLO1 150239Z 18016KT 20/10 A3003 RMK A01 T01960096  RH  053%=      5-min Rain = 0
KLO1 150240Z 18012KT 20/10 A3003 RMK A01 T01960097  RH  053%=      5-min Rain = 0
KLO1 150241Z 18013KT 20/10 A3003 RMK A01 T01960097  RH  053%=      5-min Rain = 0
KLO1 150242Z 18012KT 20/10 A3003 RMK A01 T01950096  RH  053%=      5-min Rain = 0
KLO1 150243Z 18011KT 19/10 A3003 RMK A01 T01940096  RH  053%=      5-min Rain = 0
KLO1 150244Z 18011KT 19/10 A3003 RMK A01 T01930096  RH  053%=      5-min Rain = 0
KLO1 150245Z 18012KT 19/10 A3003 RMK A01 T01920096  RH  054%=      5-min Rain = 0
KLO1 150246Z 18011KT 19/10 A3003 RMK A01 T01920097  RH  054%=      5-min Rain = 0
KLO1 150247Z 18010KT 19/10 A3003 RMK A01 T01920097  RH  054%=      5-min Rain = 0
KLO1 150248Z 18010KT 19/10 A3003 RMK A01 T01920097  RH  054%=      5-min Rain = 0
KLO1 150249Z 18009KT 19/10 A3003 RMK A01 T01910096  RH  054%=      5-min Rain = 0
KLO1 150250Z 18010KT 19/10 A3003 RMK A01 T01910096  RH  054%=      5-min Rain = 0
KLO1 150251Z 18010KT 19/10 A3003 RMK A01 T01900096  RH  054%=      5-min Rain = 0
KLO1 150252Z 18011KT 19/10 A3003 RMK A01 T01900096  RH  055%=      5-min Rain = 0
KLO1 150253Z 18013KT 19/10 A3003 RMK A01 T01900097  RH  055%=      5-min Rain = 0
KLO1 150254Z 18011KT 19/10 A3003 RMK A01 T01900097  RH  055%=      5-min Rain = 0
KLO1 150255Z 18011KT 19/10 A3003 RMK A01 T01900097  RH  055%=      5-min Rain = 0
KLO1 150256Z 18012KT 19/10 A3003 RMK A01 T01890097  RH  055%=      5-min Rain = 0
KLO1 150257Z 18012KT 19/10 A3003 RMK A01 T01890097  RH  055%=      5-min Rain = 0
KLO1 150258Z 18012KT 19/10 A3003 RMK A01 T01890098  RH  055%=      5-min Rain = 0
KLO1 150259Z 18013KT 19/10 A3003 RMK A01 T01880097  RH  056%=      5-min Rain = 0
KLO1 150300Z 19011KT 19/10 A3003 RMK A01 T01880098  RH  056%=      5-min Rain = 0
KLO1 150301Z 19011KT 19/10 A3003 RMK A01 T01880097  RH  056%=      5-min Rain = 0
KLO1 150302Z 19013KT 19/10 A3003 RMK A01 T01870097  RH  056%=      5-min Rain = 0
KLO1 150303Z 20011KT 19/10 A3003 RMK A01 T01870097  RH  056%=      5-min Rain = 0
KLO1 150304Z 19011KT 19/10 A3003 RMK A01 T01860097  RH  056%=      5-min Rain = 0
KLO1 150305Z 19012KT 19/10 A3003 RMK A01 T01860097  RH  056%=      5-min Rain = 0
KLO1 150306Z 19011G16KT 19/10 A3004 RMK A01 T01860097  RH  056%=      5-min Rain = 0
KLO1 150307Z 19013KT 19/10 A3004 RMK A01 T01850097  RH  056%=      5-min Rain = 0
KLO1 150308Z 19012KT 19/10 A3004 RMK A01 T01850097  RH  057%=      5-min Rain = 0
KLO1 150309Z 18014KT 18/10 A3003 RMK A01 T01840098  RH  057%=      5-min Rain = 0
KLO1 150310Z 19015KT 18/10 A3004 RMK A01 T01840098  RH  057%=      5-min Rain = 0
KLO1 150311Z 18014KT 18/10 A3004 RMK A01 T01840098  RH  057%=      5-min Rain = 0
KLO1 150312Z 18013KT 19/10 A3004 RMK A01 T01850098  RH  057%=      5-min Rain = 0
KLO1 150313Z 18015G20KT 18/10 A3004 RMK A01 T01840098  RH  057%=      5-min Rain = 0
KLO1 150314Z 18013KT 18/10 A3004 RMK A01 T01840098  RH  057%=      5-min Rain = 0
KLO1 150315Z 19015KT 18/10 A3004 RMK A01 T01830098  RH  057%=      5-min Rain = 0
KLO1 150316Z 19014KT 18/10 A3004 RMK A01 T01830098  RH  057%=      5-min Rain = 0
KLO1 150317Z 19013KT 18/10 A3004 RMK A01 T01830098  RH  057%=      5-min Rain = 0
KLO1 150318Z 19016KT 18/10 A3004 RMK A01 T01830098  RH  058%=      5-min Rain = 0
KLO1 150319Z 19014KT 18/10 A3004 RMK A01 T01830098  RH  058%=      5-min Rain = 0
KLO1 150320Z 19013KT 18/10 A3004 RMK A01 T01820098  RH  058%=      5-min Rain = 0
KLO1 150321Z 19014KT 18/10 A3004 RMK A01 T01810098  RH  058%=      5-min Rain = 0
KLO1 150322Z 19012KT 18/10 A3004 RMK A01 T01810098  RH  058%=      5-min Rain = 0
KLO1 150323Z 19011KT 18/10 A3004 RMK A01 T01800097  RH  058%=      5-min Rain = 0
KLO1 150324Z 19012KT 18/10 A3004 RMK A01 T01790097  RH  059%=      5-min Rain = 0
KLO1 150325Z 19013KT 18/10 A3004 RMK A01 T01790097  RH  059%=      5-min Rain = 0
KLO1 150326Z 19014KT 18/10 A3004 RMK A01 T01790097  RH  059%=      5-min Rain = 0
KLO1 150327Z 19012KT 18/10 A3004 RMK A01 T01790097  RH  059%=      5-min Rain = 0
KLO1 150328Z 19011KT 18/10 A3005 RMK A01 T01790097  RH  059%=      5-min Rain = 0
KLO1 150329Z 19014KT 18/10 A3004 RMK A01 T01780097  RH  059%=      5-min Rain = 0
KLO1 150330Z 19014KT 18/10 A3004 RMK A01 T01780097  RH  059%=      5-min Rain = 0
KLO1 150331Z 19013KT 18/10 A3004 RMK A01 T01780097  RH  059%=      5-min Rain = 0
KLO1 150332Z 19013KT 18/10 A3004 RMK A01 T01780097  RH  059%=      5-min Rain = 0
KLO1 150333Z 19013KT 18/10 A3004 RMK A01 T01780097  RH  059%=      5-min Rain = 0
KLO1 150334Z 19014KT 18/10 A3005 RMK A01 T01780097  RH  059%=      5-min Rain = 0
KLO1 150335Z 19013KT 18/10 A3005 RMK A01 T01780097  RH  059%=      5-min Rain = 0
KLO1 150336Z 19013KT 18/10 A3005 RMK A01 T01770097  RH  059%=      5-min Rain = 0
KLO1 150337Z 19014KT 18/10 A3005 RMK A01 T01770097  RH  059%=      5-min Rain = 0
KLO1 150338Z 19013KT 18/10 A3005 RMK A01 T01770097  RH  060%=      5-min Rain = 0
KLO1 150339Z 19013KT 18/10 A3005 RMK A01 T01770097  RH  060%=      5-min Rain = 0
KLO1 150340Z 18012KT 18/10 A3005 RMK A01 T01770098  RH  060%=      5-min Rain = 0
KLO1 150341Z 19014KT 18/10 A3005 RMK A01 T01760098  RH  060%=      5-min Rain = 0
KLO1 150342Z 19013KT 18/10 A3005 RMK A01 T01760098  RH  060%=      5-min Rain = 0
KLO1 150343Z 19015KT 18/10 A3005 RMK A01 T01750098  RH  060%=      5-min Rain = 0
KLO1 150344Z 19016G21KT 18/10 A3005 RMK A01 T01750098  RH  060%=      5-min Rain = 0
KLO1 150345Z 19017KT 18/10 A3005 RMK A01 T01750098  RH  061%=      5-min Rain = 0
KLO1 150346Z 18014KT 18/10 A3005 RMK A01 T01750099  RH  061%=      5-min Rain = 0
KLO1 150347Z 19016KT 18/10 A3005 RMK A01 T01750099  RH  061%=      5-min Rain = 0
KLO1 150348Z 19015KT 18/10 A3005 RMK A01 T01750099  RH  061%=      5-min Rain = 0
KLO1 150349Z 18016G22KT 18/10 A3005 RMK A01 T01750099  RH  061%=      5-min Rain = 0
KLO1 150350Z 19015KT 18/10 A3005 RMK A01 T01750099  RH  061%=      5-min Rain = 0
KLO1 150351Z 19015KT 18/10 A3005 RMK A01 T01750100  RH  061%=      5-min Rain = 0
KLO1 150352Z 18015KT 18/10 A3005 RMK A01 T01750100  RH  061%=      5-min Rain = 0
KLO1 150353Z 19016KT 17/10 A3005 RMK A01 T01740100  RH  062%=      5-min Rain = 0
KLO1 150354Z 18015KT 17/10 A3005 RMK A01 T01740100  RH  062%=      5-min Rain = 0
KLO1 150355Z 19015G20KT 17/10 A3005 RMK A01 T01740100  RH  062%=      5-min Rain = 0
KLO1 150356Z 18018KT 17/10 A3005 RMK A01 T01740101  RH  062%=      5-min Rain = 0
KLO1 150357Z 18018KT 17/10 A3005 RMK A01 T01740101  RH  062%=      5-min Rain = 0
KLO1 150358Z 19019KT 17/10 A3005 RMK A01 T01730101  RH  062%=      5-min Rain = 0
KLO1 150359Z 18017G22KT 17/10 A3005 RMK A01 T01730101  RH  063%=      5-min Rain = 0
KLO1 150400Z 18015KT 17/10 A3005 RMK A01 T01730101  RH  063%=      5-min Rain = 0
KLO1 150401Z 19017G22KT 17/10 A3005 RMK A01 T01730102  RH  063%=      5-min Rain = 0
KLO1 150402Z 18016KT 17/10 A3005 RMK A01 T01720102  RH  063%=      5-min Rain = 0
KLO1 150403Z 18019KT 17/10 A3005 RMK A01 T01730102  RH  063%=      5-min Rain = 0
KLO1 150404Z 18017KT 17/10 A3005 RMK A01 T01720102  RH  063%=      5-min Rain = 0
KLO1 150405Z 18016KT 17/10 A3005 RMK A01 T01720103  RH  064%=      5-min Rain = 0
KLO1 150406Z 18017KT 17/10 A3005 RMK A01 T01720103  RH  064%=      5-min Rain = 0
KLO1 150407Z 18015KT 17/10 A3005 RMK A01 T01710103  RH  064%=      5-min Rain = 0
KLO1 150408Z 18016KT 17/10 A3005 RMK A01 T01710102  RH  064%=      5-min Rain = 0
KLO1 150409Z 18015KT 17/10 A3005 RMK A01 T01710103  RH  064%=      5-min Rain = 0
KLO1 150410Z 18016G22KT 17/10 A3005 RMK A01 T01700103  RH  064%=      5-min Rain = 0
KLO1 150411Z 18015KT 17/10 A3005 RMK A01 T01700103  RH  064%=      5-min Rain = 0
KLO1 150412Z 18016KT 17/10 A3005 RMK A01 T01700103  RH  065%=      5-min Rain = 0
KLO1 150413Z 18016KT 17/10 A3005 RMK A01 T01700103  RH  065%=      5-min Rain = 0
KLO1 150414Z 18014KT 17/10 A3005 RMK A01 T01700103  RH  065%=      5-min Rain = 0
KLO1 150415Z 18017KT 17/10 A3005 RMK A01 T01690103  RH  065%=      5-min Rain = 0
KLO1 150416Z 18017G22KT 17/10 A3004 RMK A01 T01690104  RH  065%=      5-min Rain = 0
KLO1 150417Z 18019KT 17/10 A3004 RMK A01 T01680104  RH  066%=      5-min Rain = 0
KLO1 150418Z 18017KT 17/10 A3004 RMK A01 T01680104  RH  066%=      5-min Rain = 0
KLO1 150419Z 18018KT 17/11 A3004 RMK A01 T01690105  RH  066%=      5-min Rain = 0
KLO1 150420Z 19018KT 17/11 A3005 RMK A01 T01680105  RH  066%=      5-min Rain = 0
KLO1 150421Z 18018KT 17/11 A3005 RMK A01 T01680105  RH  066%=      5-min Rain = 0
KLO1 150422Z 18020KT 17/11 A3005 RMK A01 T01670105  RH  067%=      5-min Rain = 0
KLO1 150423Z 18017KT 17/11 A3005 RMK A01 T01680106  RH  067%=      5-min Rain = 0
KLO1 150424Z 19017KT 17/11 A3005 RMK A01 T01670106  RH  067%=      5-min Rain = 0
KLO1 150425Z 18015KT 17/11 A3005 RMK A01 T01670106  RH  067%=      5-min Rain = 0
KLO1 150426Z 19019KT 17/11 A3005 RMK A01 T01660106  RH  068%=      5-min Rain = 0
KLO1 150427Z 19017G22KT 17/11 A3005 RMK A01 T01660106  RH  068%=      5-min Rain = 0
KLO1 150428Z 19017KT 17/11 A3005 RMK A01 T01660106  RH  068%=      5-min Rain = 0
KLO1 150429Z 19018KT 17/11 A3005 RMK A01 T01650106  RH  068%=      5-min Rain = 0
KLO1 150430Z 19017KT 17/11 A3005 RMK A01 T01650107  RH  068%=      5-min Rain = 0
KLO1 150431Z 19018KT 17/11 A3005 RMK A01 T01650107  RH  068%=      5-min Rain = 0
KLO1 150432Z 19018KT 17/11 A3005 RMK A01 T01650107  RH  069%=      5-min Rain = 0
KLO1 150433Z 19019KT 17/11 A3005 RMK A01 T01650107  RH  069%=      5-min Rain = 0
KLO1 150434Z 19019KT 17/11 A3005 RMK A01 T01650108  RH  069%=      5-min Rain = 0
KLO1 150435Z 19019KT 17/11 A3005 RMK A01 T01650108  RH  069%=      5-min Rain = 0
KLO1 150436Z 19016G22KT 17/11 A3005 RMK A01 T01650108  RH  069%=      5-min Rain = 0
KLO1 150437Z 19017KT 16/11 A3005 RMK A01 T01640107  RH  069%=      5-min Rain = 0
KLO1 150438Z 19018G23KT 16/11 A3005 RMK A01 T01630108  RH  069%=      5-min Rain = 0
KLO1 150439Z 19017G22KT 16/11 A3005 RMK A01 T01630107  RH  069%=      5-min Rain = 0
KLO1 150440Z 19018KT 16/11 A3005 RMK A01 T01630108  RH  070%=      5-min Rain = 0
KLO1 150441Z 19018G23KT 16/11 A3005 RMK A01 T01630108  RH  070%=      5-min Rain = 0
KLO1 150442Z 19018KT 16/11 A3005 RMK A01 T01630108  RH  070%=      5-min Rain = 0
KLO1 150443Z 19016KT 16/11 A3005 RMK A01 T01630108  RH  070%=      5-min Rain = 0
KLO1 150444Z 19016KT 16/11 A3005 RMK A01 T01620108  RH  070%=      5-min Rain = 0
KLO1 150445Z 19018G23KT 16/11 A3005 RMK A01 T01620108  RH  070%=      5-min Rain = 0
KLO1 150446Z 19022KT 16/11 A3005 RMK A01 T01620108  RH  070%=      5-min Rain = 0
KLO1 150447Z 19019KT 16/11 A3005 RMK A01 T01620108  RH  070%=      5-min Rain = 0
KLO1 150448Z 19018G24KT 16/11 A3005 RMK A01 T01620108  RH  070%=      5-min Rain = 0
KLO1 150449Z 19018KT 16/11 A3005 RMK A01 T01620108  RH  070%=      5-min Rain = 0
KLO1 150450Z 19016KT 16/11 A3005 RMK A01 T01620108  RH  070%=      5-min Rain = 0
KLO1 150451Z 19015KT 16/11 A3005 RMK A01 T01610108  RH  070%=      5-min Rain = 0
KLO1 150452Z 19015KT 16/11 A3005 RMK A01 T01610108  RH  071%=      5-min Rain = 0
KLO1 150453Z 19015KT 16/11 A3005 RMK A01 T01610108  RH  071%=      5-min Rain = 0
KLO1 150454Z 19018G23KT 16/11 A3005 RMK A01 T01610108  RH  071%=      5-min Rain = 0
KLO1 150455Z 19018KT 16/11 A3005 RMK A01 T01610108  RH  071%=      5-min Rain = 0
KLO1 150456Z 19020KT 16/11 A3005 RMK A01 T01610108  RH  071%=      5-min Rain = 0
KLO1 150457Z 19020KT 16/11 A3005 RMK A01 T01610108  RH  071%=      5-min Rain = 0
KLO1 150458Z 19018KT 16/11 A3005 RMK A01 T01620109  RH  071%=      5-min Rain = 0
KLO1 150459Z 19017KT 16/11 A3005 RMK A01 T01620109  RH  071%=      5-min Rain = 0
KLO1 150500Z 19017KT 16/11 A3005 RMK A01 T01610108  RH  071%=      5-min Rain = 0
KLO1 150501Z 19016KT 16/11 A3005 RMK A01 T01610108  RH  071%=      5-min Rain = 0
KLO1 150502Z 19015KT 16/11 A3005 RMK A01 T01610108  RH  071%=      5-min Rain = 0
KLO1 150503Z 19019KT 16/11 A3005 RMK A01 T01600108  RH  071%=      5-min Rain = 0
KLO1 150504Z 19019KT 16/11 A3005 RMK A01 T01600108  RH  071%=      5-min Rain = 0
KLO1 150505Z 19019KT 16/11 A3005 RMK A01 T01610109  RH  071%=      5-min Rain = 0
KLO1 150506Z 19018KT 16/11 A3005 RMK A01 T01610109  RH  071%=      5-min Rain = 0
KLO1 150507Z 19018KT 16/11 A3005 RMK A01 T01610109  RH  071%=      5-min Rain = 0
KLO1 150508Z 19018KT 16/11 A3005 RMK A01 T01610109  RH  071%=      5-min Rain = 0
KLO1 150509Z 19017G22KT 16/11 A3005 RMK A01 T01610109  RH  071%=      5-min Rain = 0
KLO1 150510Z 19019KT 16/11 A3005 RMK A01 T01610109  RH  072%=      5-min Rain = 0
KLO1 150511Z 19018KT 16/11 A3005 RMK A01 T01610109  RH  072%=      5-min Rain = 0
KLO1 150512Z 19018KT 16/11 A3005 RMK A01 T01610109  RH  072%=      5-min Rain = 0
KLO1 150513Z 19019KT 16/11 A3005 RMK A01 T01610110  RH  072%=      5-min Rain = 0
KLO1 150514Z 19020G25KT 16/11 A3005 RMK A01 T01610110  RH  072%=      5-min Rain = 0
KLO1 150515Z 19017G22KT 16/11 A3005 RMK A01 T01600109  RH  072%=      5-min Rain = 0
KLO1 150516Z 19017G22KT 16/11 A3006 RMK A01 T01600109  RH  072%=      5-min Rain = 0
KLO1 150517Z 19016G21KT 16/11 A3006 RMK A01 T01600109  RH  072%=      5-min Rain = 0
KLO1 150518Z 19017KT 16/11 A3005 RMK A01 T01600109  RH  072%=      5-min Rain = 0
KLO1 150519Z 19017KT 16/11 A3005 RMK A01 T01590109  RH  072%=      5-min Rain = 0
KLO1 150520Z 19018KT 16/11 A3005 RMK A01 T01590109  RH  072%=      5-min Rain = 0
KLO1 150521Z 19018KT 16/11 A3005 RMK A01 T01590109  RH  072%=      5-min Rain = 0
KLO1 150522Z 19015KT 16/11 A3005 RMK A01 T01590109  RH  072%=      5-min Rain = 0
KLO1 150523Z 19015KT 16/11 A3005 RMK A01 T01590109  RH  072%=      5-min Rain = 0
KLO1 150524Z 19017KT 16/11 A3005 RMK A01 T01580109  RH  073%=      5-min Rain = 0
KLO1 150525Z 19018KT 16/11 A3005 RMK A01 T01580109  RH  073%=      5-min Rain = 0
KLO1 150526Z 19018KT 16/11 A3006 RMK A01 T01580109  RH  073%=      5-min Rain = 0
KLO1 150527Z 19018KT 16/11 A3006 RMK A01 T01580109  RH  072%=      5-min Rain = 0
KLO1 150528Z 19017KT 16/11 A3006 RMK A01 T01590109  RH  073%=      5-min Rain = 0
KLO1 150529Z 19016KT 16/11 A3006 RMK A01 T01580109  RH  073%=      5-min Rain = 0
KLO1 150530Z 19014KT 16/11 A3006 RMK A01 T01580109  RH  073%=      5-min Rain = 0
KLO1 150531Z 19014KT 16/11 A3006 RMK A01 T01580109  RH  073%=      5-min Rain = 0
KLO1 150532Z 19014KT 16/11 A3006 RMK A01 T01570109  RH  073%=      5-min Rain = 0
KLO1 150533Z 19016KT 16/11 A3005 RMK A01 T01570109  RH  073%=      5-min Rain = 0
KLO1 150534Z 19016KT 16/11 A3006 RMK A01 T01570109  RH  073%=      5-min Rain = 0
KLO1 150535Z 19013KT 16/11 A3006 RMK A01 T01570109  RH  073%=      5-min Rain = 0
KLO1 150536Z 19015KT 16/11 A3005 RMK A01 T01570109  RH  073%=      5-min Rain = 0
KLO1 150537Z 19015KT 16/11 A3005 RMK A01 T01570109  RH  073%=      5-min Rain = 0
KLO1 150538Z 19016KT 16/11 A3005 RMK A01 T01560109  RH  073%=      5-min Rain = 0
KLO1 150539Z 19015KT 16/11 A3005 RMK A01 T01570109  RH  073%=      5-min Rain = 0
KLO1 150540Z 19013KT 16/11 A3005 RMK A01 T01560109  RH  073%=      5-min Rain = 0
KLO1 150541Z 19013KT 16/11 A3005 RMK A01 T01560109  RH  073%=      5-min Rain = 0
KLO1 150542Z 19016KT 16/11 A3005 RMK A01 T01560108  RH  073%=      5-min Rain = 0
KLO1 150543Z 19017KT 16/11 A3005 RMK A01 T01560109  RH  074%=      5-min Rain = 0
KLO1 150544Z 19016KT 16/11 A3005 RMK A01 T01560109  RH  073%=      5-min Rain = 0
KLO1 150545Z 19016G22KT 16/11 A3005 RMK A01 T01570109  RH  073%=      5-min Rain = 0
KLO1 150546Z 19016KT 16/11 A3005 RMK A01 T01570109  RH  073%=      5-min Rain = 0
KLO1 150547Z 19015KT 16/11 A3005 RMK A01 T01570109  RH  073%=      5-min Rain = 0
KLO1 150548Z 19014G19KT 16/11 A3005 RMK A01 T01570109  RH  073%=      5-min Rain = 0
KLO1 150549Z 19016KT 16/11 A3005 RMK A01 T01560109  RH  073%=      5-min Rain = 0
KLO1 150550Z 19016KT 16/11 A3005 RMK A01 T01560109  RH  073%=      5-min Rain = 0
KLO1 150551Z 19015KT 16/11 A3005 RMK A01 T01560109  RH  073%=      5-min Rain = 0
KLO1 150552Z 19016KT 16/11 A3005 RMK A01 T01560109  RH  073%=      5-min Rain = 0
KLO1 150553Z 19015KT 16/11 A3005 RMK A01 T01560109  RH  073%=      5-min Rain = 0
KLO1 150554Z 19016KT 16/11 A3005 RMK A01 T01560109  RH  074%=      5-min Rain = 0
KLO1 150555Z 19019KT 16/11 A3005 RMK A01 T01560109  RH  074%=      5-min Rain = 0
KLO1 150556Z 19016KT 16/11 A3005 RMK A01 T01560109  RH  073%=      5-min Rain = 0
KLO1 150557Z 19015KT 16/11 A3005 RMK A01 T01560109  RH  073%=      5-min Rain = 0
KLO1 150558Z 19014KT 16/11 A3005 RMK A01 T01560109  RH  073%=      5-min Rain = 0
KLO1 150559Z 19015KT 16/11 A3005 RMK A01 T01550108  RH  074%=      5-min Rain = 0

Page generated in 0.0326 seconds.